<?xml version="1.0" encoding="UTF-8" standalone="no" ?>
<gpx xmlns="http://www.topografix.com/GPX/1/1" xmlns:xsi="http://www.w3.org/2001/XMLSchema-instance" xsi:schemaLocation="http://www.topografix.com/GPX/1/1 http://www.topografix.com/GPX/1/1/gpx.xsd" version="1.1" creator="VisuGPX - https://www.visugpx.com">
  <metadata>
    <name>GR34 : de Pléneuf à Dahouët</name>
    <desc><![CDATA[sur le GR34 le 27/09/2013]]></desc>
  </metadata>
  <trk>
    <name><![CDATA[GR34 : de Pléneuf à Dahouët_1]]></name>
    <trkseg>
      <trkpt lat="48.59828" lon="-2.533">
        <ele>15.3</ele>
        <time>2013-09-27T16:04:26Z</time>
      </trkpt>
      <trkpt lat="48.59828" lon="-2.533">
        <ele>15.3</ele>
        <time>2013-09-27T16:04:27Z</time>
      </trkpt>
      <trkpt lat="48.59831" lon="-2.53326">
        <ele>8.2</ele>
        <time>2013-09-27T16:04:42Z</time>
      </trkpt>
      <trkpt lat="48.59831" lon="-2.53338">
        <ele>8.1</ele>
        <time>2013-09-27T16:04:50Z</time>
      </trkpt>
      <trkpt lat="48.5983" lon="-2.53351">
        <ele>8</ele>
        <time>2013-09-27T16:04:58Z</time>
      </trkpt>
      <trkpt lat="48.59827" lon="-2.53363">
        <ele>7.8</ele>
        <time>2013-09-27T16:05:05Z</time>
      </trkpt>
      <trkpt lat="48.59824" lon="-2.53374">
        <ele>7.6</ele>
        <time>2013-09-27T16:05:12Z</time>
      </trkpt>
      <trkpt lat="48.5982" lon="-2.53386">
        <ele>7.1</ele>
        <time>2013-09-27T16:05:20Z</time>
      </trkpt>
      <trkpt lat="48.59817" lon="-2.53397">
        <ele>6.7</ele>
        <time>2013-09-27T16:05:27Z</time>
      </trkpt>
      <trkpt lat="48.59816" lon="-2.53399">
        <ele>6.6</ele>
        <time>2013-09-27T16:05:28Z</time>
      </trkpt>
      <trkpt lat="48.5981" lon="-2.5342">
        <ele>5.7</ele>
        <time>2013-09-27T16:05:41Z</time>
      </trkpt>
      <trkpt lat="48.59807" lon="-2.5343">
        <ele>5.2</ele>
        <time>2013-09-27T16:05:48Z</time>
      </trkpt>
      <trkpt lat="48.59804" lon="-2.53442">
        <ele>4.9</ele>
        <time>2013-09-27T16:05:55Z</time>
      </trkpt>
      <trkpt lat="48.59801" lon="-2.53454">
        <ele>4.7</ele>
        <time>2013-09-27T16:06:02Z</time>
      </trkpt>
      <trkpt lat="48.59799" lon="-2.53465">
        <ele>4.4</ele>
        <time>2013-09-27T16:06:09Z</time>
      </trkpt>
      <trkpt lat="48.59796" lon="-2.53477">
        <ele>4.1</ele>
        <time>2013-09-27T16:06:16Z</time>
      </trkpt>
      <trkpt lat="48.59793" lon="-2.53488">
        <ele>3.8</ele>
        <time>2013-09-27T16:06:23Z</time>
      </trkpt>
      <trkpt lat="48.5979" lon="-2.535">
        <ele>3.6</ele>
        <time>2013-09-27T16:06:30Z</time>
      </trkpt>
      <trkpt lat="48.5979" lon="-2.53501">
        <ele>3.6</ele>
        <time>2013-09-27T16:06:31Z</time>
      </trkpt>
      <trkpt lat="48.59784" lon="-2.53522">
        <ele>3.3</ele>
        <time>2013-09-27T16:06:44Z</time>
      </trkpt>
      <trkpt lat="48.5978" lon="-2.53533">
        <ele>3.2</ele>
        <time>2013-09-27T16:06:51Z</time>
      </trkpt>
      <trkpt lat="48.59776" lon="-2.53544">
        <ele>3.1</ele>
        <time>2013-09-27T16:06:58Z</time>
      </trkpt>
      <trkpt lat="48.59773" lon="-2.53555">
        <ele>2.9</ele>
        <time>2013-09-27T16:07:05Z</time>
      </trkpt>
      <trkpt lat="48.5977" lon="-2.53566">
        <ele>2.8</ele>
        <time>2013-09-27T16:07:12Z</time>
      </trkpt>
      <trkpt lat="48.59767" lon="-2.53578">
        <ele>2.8</ele>
        <time>2013-09-27T16:07:19Z</time>
      </trkpt>
      <trkpt lat="48.59765" lon="-2.5359">
        <ele>2.8</ele>
        <time>2013-09-27T16:07:26Z</time>
      </trkpt>
      <trkpt lat="48.59762" lon="-2.53601">
        <ele>2.9</ele>
        <time>2013-09-27T16:07:33Z</time>
      </trkpt>
      <trkpt lat="48.59761" lon="-2.53603">
        <ele>2.9</ele>
        <time>2013-09-27T16:07:34Z</time>
      </trkpt>
      <trkpt lat="48.59754" lon="-2.53625">
        <ele>3</ele>
        <time>2013-09-27T16:07:47Z</time>
      </trkpt>
      <trkpt lat="48.59749" lon="-2.53636">
        <ele>3.1</ele>
        <time>2013-09-27T16:07:54Z</time>
      </trkpt>
      <trkpt lat="48.59745" lon="-2.53647">
        <ele>3.3</ele>
        <time>2013-09-27T16:08:01Z</time>
      </trkpt>
      <trkpt lat="48.59742" lon="-2.53659">
        <ele>3.4</ele>
        <time>2013-09-27T16:08:08Z</time>
      </trkpt>
      <trkpt lat="48.59737" lon="-2.5367">
        <ele>3.5</ele>
        <time>2013-09-27T16:08:15Z</time>
      </trkpt>
      <trkpt lat="48.59733" lon="-2.5368">
        <ele>3.5</ele>
        <time>2013-09-27T16:08:22Z</time>
      </trkpt>
      <trkpt lat="48.59726" lon="-2.53689">
        <ele>3.5</ele>
        <time>2013-09-27T16:08:29Z</time>
      </trkpt>
      <trkpt lat="48.5972" lon="-2.537">
        <ele>3.3</ele>
        <time>2013-09-27T16:08:36Z</time>
      </trkpt>
      <trkpt lat="48.5972" lon="-2.53701">
        <ele>3.3</ele>
        <time>2013-09-27T16:08:37Z</time>
      </trkpt>
      <trkpt lat="48.59709" lon="-2.53719">
        <ele>3.1</ele>
        <time>2013-09-27T16:08:50Z</time>
      </trkpt>
      <trkpt lat="48.59702" lon="-2.53726">
        <ele>3.1</ele>
        <time>2013-09-27T16:08:57Z</time>
      </trkpt>
      <trkpt lat="48.59694" lon="-2.53725">
        <ele>3.3</ele>
        <time>2013-09-27T16:09:06Z</time>
      </trkpt>
      <trkpt lat="48.59686" lon="-2.53724">
        <ele>3.8</ele>
        <time>2013-09-27T16:09:15Z</time>
      </trkpt>
      <trkpt lat="48.59677" lon="-2.53724">
        <ele>4.6</ele>
        <time>2013-09-27T16:09:25Z</time>
      </trkpt>
      <trkpt lat="48.59672" lon="-2.53735">
        <ele>6</ele>
        <time>2013-09-27T16:09:39Z</time>
      </trkpt>
      <trkpt lat="48.59672" lon="-2.53737">
        <ele>6.1</ele>
        <time>2013-09-27T16:09:40Z</time>
      </trkpt>
      <trkpt lat="48.59662" lon="-2.53756">
        <ele>7.8</ele>
        <time>2013-09-27T16:09:58Z</time>
      </trkpt>
      <trkpt lat="48.5966" lon="-2.53768">
        <ele>8.6</ele>
        <time>2013-09-27T16:10:06Z</time>
      </trkpt>
      <trkpt lat="48.59662" lon="-2.53782">
        <ele>9.4</ele>
        <time>2013-09-27T16:10:15Z</time>
      </trkpt>
      <trkpt lat="48.59657" lon="-2.53792">
        <ele>10.8</ele>
        <time>2013-09-27T16:10:29Z</time>
      </trkpt>
      <trkpt lat="48.59653" lon="-2.53803">
        <ele>12.7</ele>
        <time>2013-09-27T16:10:44Z</time>
      </trkpt>
      <trkpt lat="48.59653" lon="-2.53804">
        <ele>12.9</ele>
        <time>2013-09-27T16:10:45Z</time>
      </trkpt>
      <trkpt lat="48.59652" lon="-2.53828">
        <ele>15.8</ele>
        <time>2013-09-27T16:11:05Z</time>
      </trkpt>
      <trkpt lat="48.59654" lon="-2.53841">
        <ele>16.9</ele>
        <time>2013-09-27T16:11:12Z</time>
      </trkpt>
      <trkpt lat="48.59655" lon="-2.53852">
        <ele>17.8</ele>
        <time>2013-09-27T16:11:18Z</time>
      </trkpt>
      <trkpt lat="48.59657" lon="-2.53866">
        <ele>18.9</ele>
        <time>2013-09-27T16:11:25Z</time>
      </trkpt>
      <trkpt lat="48.59657" lon="-2.53879">
        <ele>20</ele>
        <time>2013-09-27T16:11:33Z</time>
      </trkpt>
      <trkpt lat="48.59655" lon="-2.53892">
        <ele>21</ele>
        <time>2013-09-27T16:11:41Z</time>
      </trkpt>
      <trkpt lat="48.59653" lon="-2.53905">
        <ele>22.3</ele>
        <time>2013-09-27T16:11:50Z</time>
      </trkpt>
      <trkpt lat="48.59653" lon="-2.53906">
        <ele>22.5</ele>
        <time>2013-09-27T16:11:51Z</time>
      </trkpt>
      <trkpt lat="48.59654" lon="-2.53928">
        <ele>24</ele>
        <time>2013-09-27T16:12:02Z</time>
      </trkpt>
      <trkpt lat="48.59656" lon="-2.5394">
        <ele>24.5</ele>
        <time>2013-09-27T16:12:07Z</time>
      </trkpt>
      <trkpt lat="48.59659" lon="-2.53951">
        <ele>25.1</ele>
        <time>2013-09-27T16:12:13Z</time>
      </trkpt>
      <trkpt lat="48.59662" lon="-2.53963">
        <ele>25.5</ele>
        <time>2013-09-27T16:12:19Z</time>
      </trkpt>
      <trkpt lat="48.59665" lon="-2.53974">
        <ele>25.9</ele>
        <time>2013-09-27T16:12:25Z</time>
      </trkpt>
      <trkpt lat="48.59667" lon="-2.53985">
        <ele>26.2</ele>
        <time>2013-09-27T16:12:31Z</time>
      </trkpt>
      <trkpt lat="48.5967" lon="-2.53996">
        <ele>26.5</ele>
        <time>2013-09-27T16:12:38Z</time>
      </trkpt>
      <trkpt lat="48.59674" lon="-2.54008">
        <ele>32.7</ele>
        <time>2013-09-27T16:12:45Z</time>
      </trkpt>
      <trkpt lat="48.59678" lon="-2.54019">
        <ele>39.2</ele>
        <time>2013-09-27T16:12:51Z</time>
      </trkpt>
      <trkpt lat="48.59678" lon="-2.54021">
        <ele>39.7</ele>
        <time>2013-09-27T16:12:52Z</time>
      </trkpt>
      <trkpt lat="48.59687" lon="-2.54041">
        <ele>40.8</ele>
        <time>2013-09-27T16:13:03Z</time>
      </trkpt>
      <trkpt lat="48.5969" lon="-2.54052">
        <ele>40.2</ele>
        <time>2013-09-27T16:13:34Z</time>
      </trkpt>
      <trkpt lat="48.59692" lon="-2.54064">
        <ele>40.6</ele>
        <time>2013-09-27T16:13:41Z</time>
      </trkpt>
      <trkpt lat="48.59694" lon="-2.54077">
        <ele>41.8</ele>
        <time>2013-09-27T16:13:48Z</time>
      </trkpt>
      <trkpt lat="48.59696" lon="-2.5409">
        <ele>41.4</ele>
        <time>2013-09-27T16:13:56Z</time>
      </trkpt>
      <trkpt lat="48.59696" lon="-2.54092">
        <ele>41.6</ele>
        <time>2013-09-27T16:13:57Z</time>
      </trkpt>
      <trkpt lat="48.59695" lon="-2.54114">
        <ele>44</ele>
        <time>2013-09-27T16:14:15Z</time>
      </trkpt>
      <trkpt lat="48.59692" lon="-2.54127">
        <ele>46.6</ele>
        <time>2013-09-27T16:14:25Z</time>
      </trkpt>
      <trkpt lat="48.59689" lon="-2.54139">
        <ele>48.9</ele>
        <time>2013-09-27T16:14:39Z</time>
      </trkpt>
      <trkpt lat="48.59685" lon="-2.54151">
        <ele>52.7</ele>
        <time>2013-09-27T16:14:55Z</time>
      </trkpt>
      <trkpt lat="48.59684" lon="-2.54164">
        <ele>56.4</ele>
        <time>2013-09-27T16:15:13Z</time>
      </trkpt>
      <trkpt lat="48.59684" lon="-2.54164">
        <ele>57</ele>
        <time>2013-09-27T16:15:14Z</time>
      </trkpt>
      <trkpt lat="48.59679" lon="-2.54186">
        <ele>65.5</ele>
        <time>2013-09-27T16:16:19Z</time>
      </trkpt>
      <trkpt lat="48.59679" lon="-2.54187">
        <ele>65.3</ele>
        <time>2013-09-27T16:16:20Z</time>
      </trkpt>
      <trkpt lat="48.59678" lon="-2.5421">
        <ele>68</ele>
        <time>2013-09-27T16:16:38Z</time>
      </trkpt>
      <trkpt lat="48.59679" lon="-2.54224">
        <ele>69.5</ele>
        <time>2013-09-27T16:16:48Z</time>
      </trkpt>
      <trkpt lat="48.59682" lon="-2.54236">
        <ele>70</ele>
        <time>2013-09-27T16:16:55Z</time>
      </trkpt>
      <trkpt lat="48.59686" lon="-2.54247">
        <ele>71.3</ele>
        <time>2013-09-27T16:17:03Z</time>
      </trkpt>
      <trkpt lat="48.59689" lon="-2.5426">
        <ele>73.5</ele>
        <time>2013-09-27T16:17:13Z</time>
      </trkpt>
      <trkpt lat="48.59692" lon="-2.54271">
        <ele>74.7</ele>
        <time>2013-09-27T16:17:21Z</time>
      </trkpt>
      <trkpt lat="48.59693" lon="-2.54273">
        <ele>74.7</ele>
        <time>2013-09-27T16:17:22Z</time>
      </trkpt>
      <trkpt lat="48.59702" lon="-2.54291">
        <ele>75.1</ele>
        <time>2013-09-27T16:17:33Z</time>
      </trkpt>
      <trkpt lat="48.59704" lon="-2.54303">
        <ele>74.7</ele>
        <time>2013-09-27T16:17:39Z</time>
      </trkpt>
      <trkpt lat="48.59705" lon="-2.54316">
        <ele>74.4</ele>
        <time>2013-09-27T16:17:46Z</time>
      </trkpt>
      <trkpt lat="48.59705" lon="-2.54329">
        <ele>74.9</ele>
        <time>2013-09-27T16:17:53Z</time>
      </trkpt>
      <trkpt lat="48.59704" lon="-2.54342">
        <ele>75.3</ele>
        <time>2013-09-27T16:18:00Z</time>
      </trkpt>
      <trkpt lat="48.59704" lon="-2.54355">
        <ele>75.9</ele>
        <time>2013-09-27T16:18:07Z</time>
      </trkpt>
      <trkpt lat="48.59703" lon="-2.54369">
        <ele>77.5</ele>
        <time>2013-09-27T16:18:16Z</time>
      </trkpt>
      <trkpt lat="48.59705" lon="-2.54381">
        <ele>78.5</ele>
        <time>2013-09-27T16:18:25Z</time>
      </trkpt>
      <trkpt lat="48.59705" lon="-2.54383">
        <ele>78.9</ele>
        <time>2013-09-27T16:18:26Z</time>
      </trkpt>
      <trkpt lat="48.59715" lon="-2.54403">
        <ele>80.6</ele>
        <time>2013-09-27T16:18:41Z</time>
      </trkpt>
      <trkpt lat="48.59718" lon="-2.54415">
        <ele>80.4</ele>
        <time>2013-09-27T16:18:48Z</time>
      </trkpt>
      <trkpt lat="48.59719" lon="-2.54426">
        <ele>80.1</ele>
        <time>2013-09-27T16:18:54Z</time>
      </trkpt>
      <trkpt lat="48.5972" lon="-2.54438">
        <ele>79.3</ele>
        <time>2013-09-27T16:19:00Z</time>
      </trkpt>
      <trkpt lat="48.59723" lon="-2.54451">
        <ele>79</ele>
        <time>2013-09-27T16:19:07Z</time>
      </trkpt>
      <trkpt lat="48.59726" lon="-2.54463">
        <ele>78.8</ele>
        <time>2013-09-27T16:19:14Z</time>
      </trkpt>
      <trkpt lat="48.59728" lon="-2.54475">
        <ele>78.5</ele>
        <time>2013-09-27T16:20:00Z</time>
      </trkpt>
      <trkpt lat="48.59728" lon="-2.54477">
        <ele>78.7</ele>
        <time>2013-09-27T16:20:01Z</time>
      </trkpt>
      <trkpt lat="48.59732" lon="-2.545">
        <ele>74.7</ele>
        <time>2013-09-27T16:20:14Z</time>
      </trkpt>
      <trkpt lat="48.59735" lon="-2.54513">
        <ele>73.2</ele>
        <time>2013-09-27T16:20:21Z</time>
      </trkpt>
      <trkpt lat="48.59738" lon="-2.54525">
        <ele>72.3</ele>
        <time>2013-09-27T16:20:27Z</time>
      </trkpt>
      <trkpt lat="48.59739" lon="-2.54536">
        <ele>70.4</ele>
        <time>2013-09-27T16:20:33Z</time>
      </trkpt>
      <trkpt lat="48.59742" lon="-2.54547">
        <ele>69.9</ele>
        <time>2013-09-27T16:20:39Z</time>
      </trkpt>
      <trkpt lat="48.59745" lon="-2.54558">
        <ele>70.3</ele>
        <time>2013-09-27T16:20:45Z</time>
      </trkpt>
      <trkpt lat="48.59748" lon="-2.54569">
        <ele>68</ele>
        <time>2013-09-27T16:20:51Z</time>
      </trkpt>
      <trkpt lat="48.59751" lon="-2.54581">
        <ele>66.8</ele>
        <time>2013-09-27T16:20:57Z</time>
      </trkpt>
      <trkpt lat="48.59753" lon="-2.54593">
        <ele>65.5</ele>
        <time>2013-09-27T16:21:03Z</time>
      </trkpt>
      <trkpt lat="48.59753" lon="-2.54594">
        <ele>65.4</ele>
        <time>2013-09-27T16:21:04Z</time>
      </trkpt>
      <trkpt lat="48.59755" lon="-2.54618">
        <ele>64.2</ele>
        <time>2013-09-27T16:21:17Z</time>
      </trkpt>
      <trkpt lat="48.59755" lon="-2.54632">
        <ele>62.7</ele>
        <time>2013-09-27T16:21:24Z</time>
      </trkpt>
      <trkpt lat="48.59755" lon="-2.54645">
        <ele>61.5</ele>
        <time>2013-09-27T16:21:31Z</time>
      </trkpt>
      <trkpt lat="48.59757" lon="-2.54657">
        <ele>59.6</ele>
        <time>2013-09-27T16:21:38Z</time>
      </trkpt>
      <trkpt lat="48.59756" lon="-2.54669">
        <ele>59</ele>
        <time>2013-09-27T16:21:45Z</time>
      </trkpt>
      <trkpt lat="48.59754" lon="-2.54681">
        <ele>57.7</ele>
        <time>2013-09-27T16:21:52Z</time>
      </trkpt>
      <trkpt lat="48.59751" lon="-2.54692">
        <ele>57.1</ele>
        <time>2013-09-27T16:21:58Z</time>
      </trkpt>
      <trkpt lat="48.59746" lon="-2.54701">
        <ele>56.6</ele>
        <time>2013-09-27T16:22:03Z</time>
      </trkpt>
      <trkpt lat="48.59742" lon="-2.54712">
        <ele>55.8</ele>
        <time>2013-09-27T16:22:09Z</time>
      </trkpt>
      <trkpt lat="48.59741" lon="-2.54713">
        <ele>55.7</ele>
        <time>2013-09-27T16:22:10Z</time>
      </trkpt>
      <trkpt lat="48.59733" lon="-2.54734">
        <ele>54.1</ele>
        <time>2013-09-27T16:22:21Z</time>
      </trkpt>
      <trkpt lat="48.59729" lon="-2.54745">
        <ele>54.1</ele>
        <time>2013-09-27T16:22:27Z</time>
      </trkpt>
      <trkpt lat="48.59728" lon="-2.54757">
        <ele>53</ele>
        <time>2013-09-27T16:22:33Z</time>
      </trkpt>
      <trkpt lat="48.59727" lon="-2.54769">
        <ele>52</ele>
        <time>2013-09-27T16:22:40Z</time>
      </trkpt>
      <trkpt lat="48.5973" lon="-2.5478">
        <ele>52.9</ele>
        <time>2013-09-27T16:22:46Z</time>
      </trkpt>
      <trkpt lat="48.59734" lon="-2.54792">
        <ele>52.5</ele>
        <time>2013-09-27T16:22:52Z</time>
      </trkpt>
      <trkpt lat="48.59739" lon="-2.54803">
        <ele>52.3</ele>
        <time>2013-09-27T16:22:59Z</time>
      </trkpt>
      <trkpt lat="48.59745" lon="-2.54814">
        <ele>51.8</ele>
        <time>2013-09-27T16:23:07Z</time>
      </trkpt>
      <trkpt lat="48.59751" lon="-2.54823">
        <ele>52</ele>
        <time>2013-09-27T16:23:15Z</time>
      </trkpt>
      <trkpt lat="48.59751" lon="-2.54824">
        <ele>52.3</ele>
        <time>2013-09-27T16:23:16Z</time>
      </trkpt>
      <trkpt lat="48.59763" lon="-2.54838">
        <ele>50.2</ele>
        <time>2013-09-27T16:23:29Z</time>
      </trkpt>
      <trkpt lat="48.5977" lon="-2.54845">
        <ele>50</ele>
        <time>2013-09-27T16:23:35Z</time>
      </trkpt>
      <trkpt lat="48.59777" lon="-2.54853">
        <ele>49.5</ele>
        <time>2013-09-27T16:23:42Z</time>
      </trkpt>
      <trkpt lat="48.59784" lon="-2.5486">
        <ele>49.2</ele>
        <time>2013-09-27T16:23:49Z</time>
      </trkpt>
      <trkpt lat="48.59792" lon="-2.54866">
        <ele>48.2</ele>
        <time>2013-09-27T16:23:56Z</time>
      </trkpt>
      <trkpt lat="48.59798" lon="-2.54873">
        <ele>47.1</ele>
        <time>2013-09-27T16:24:03Z</time>
      </trkpt>
      <trkpt lat="48.59803" lon="-2.54884">
        <ele>46.7</ele>
        <time>2013-09-27T16:24:10Z</time>
      </trkpt>
      <trkpt lat="48.59807" lon="-2.54896">
        <ele>45.4</ele>
        <time>2013-09-27T16:24:17Z</time>
      </trkpt>
      <trkpt lat="48.59808" lon="-2.54898">
        <ele>45.4</ele>
        <time>2013-09-27T16:24:18Z</time>
      </trkpt>
      <trkpt lat="48.5981" lon="-2.5492">
        <ele>45.5</ele>
        <time>2013-09-27T16:24:29Z</time>
      </trkpt>
      <trkpt lat="48.59815" lon="-2.5493">
        <ele>45.2</ele>
        <time>2013-09-27T16:24:36Z</time>
      </trkpt>
      <trkpt lat="48.59823" lon="-2.54937">
        <ele>43.3</ele>
        <time>2013-09-27T16:24:43Z</time>
      </trkpt>
      <trkpt lat="48.59826" lon="-2.54948">
        <ele>43</ele>
        <time>2013-09-27T16:24:49Z</time>
      </trkpt>
      <trkpt lat="48.5983" lon="-2.54958">
        <ele>43</ele>
        <time>2013-09-27T16:24:56Z</time>
      </trkpt>
      <trkpt lat="48.59834" lon="-2.54969">
        <ele>41.1</ele>
        <time>2013-09-27T16:25:02Z</time>
      </trkpt>
      <trkpt lat="48.59839" lon="-2.54978">
        <ele>40.2</ele>
        <time>2013-09-27T16:25:10Z</time>
      </trkpt>
      <trkpt lat="48.59847" lon="-2.54985">
        <ele>39.9</ele>
        <time>2013-09-27T16:25:18Z</time>
      </trkpt>
      <trkpt lat="48.59847" lon="-2.54986">
        <ele>39.9</ele>
        <time>2013-09-27T16:25:19Z</time>
      </trkpt>
      <trkpt lat="48.59856" lon="-2.55005">
        <ele>38.7</ele>
        <time>2013-09-27T16:25:31Z</time>
      </trkpt>
      <trkpt lat="48.59858" lon="-2.55016">
        <ele>38</ele>
        <time>2013-09-27T16:25:37Z</time>
      </trkpt>
      <trkpt lat="48.59856" lon="-2.55027">
        <ele>38.2</ele>
        <time>2013-09-27T16:25:46Z</time>
      </trkpt>
      <trkpt lat="48.59854" lon="-2.55039">
        <ele>38.6</ele>
        <time>2013-09-27T16:25:53Z</time>
      </trkpt>
      <trkpt lat="48.59855" lon="-2.55052">
        <ele>39.3</ele>
        <time>2013-09-27T16:26:00Z</time>
      </trkpt>
      <trkpt lat="48.59859" lon="-2.55063">
        <ele>39.8</ele>
        <time>2013-09-27T16:26:07Z</time>
      </trkpt>
      <trkpt lat="48.59865" lon="-2.55072">
        <ele>40.2</ele>
        <time>2013-09-27T16:26:14Z</time>
      </trkpt>
      <trkpt lat="48.59871" lon="-2.55081">
        <ele>40</ele>
        <time>2013-09-27T16:26:21Z</time>
      </trkpt>
      <trkpt lat="48.59872" lon="-2.55082">
        <ele>39.9</ele>
        <time>2013-09-27T16:26:22Z</time>
      </trkpt>
      <trkpt lat="48.59882" lon="-2.55097">
        <ele>42.6</ele>
        <time>2013-09-27T16:26:35Z</time>
      </trkpt>
      <trkpt lat="48.59882" lon="-2.5511">
        <ele>42.6</ele>
        <time>2013-09-27T16:26:42Z</time>
      </trkpt>
      <trkpt lat="48.59878" lon="-2.55121">
        <ele>43.3</ele>
        <time>2013-09-27T16:26:49Z</time>
      </trkpt>
      <trkpt lat="48.59875" lon="-2.55133">
        <ele>43.2</ele>
        <time>2013-09-27T16:26:56Z</time>
      </trkpt>
      <trkpt lat="48.59872" lon="-2.55146">
        <ele>42.3</ele>
        <time>2013-09-27T16:27:04Z</time>
      </trkpt>
      <trkpt lat="48.59872" lon="-2.5516">
        <ele>43.4</ele>
        <time>2013-09-27T16:27:14Z</time>
      </trkpt>
      <trkpt lat="48.59872" lon="-2.55172">
        <ele>44.5</ele>
        <time>2013-09-27T16:27:27Z</time>
      </trkpt>
      <trkpt lat="48.59872" lon="-2.55173">
        <ele>44.6</ele>
        <time>2013-09-27T16:27:28Z</time>
      </trkpt>
      <trkpt lat="48.59874" lon="-2.55196">
        <ele>44.6</ele>
        <time>2013-09-27T16:27:43Z</time>
      </trkpt>
      <trkpt lat="48.59875" lon="-2.55209">
        <ele>46.9</ele>
        <time>2013-09-27T16:27:52Z</time>
      </trkpt>
      <trkpt lat="48.59876" lon="-2.55221">
        <ele>47.5</ele>
        <time>2013-09-27T16:27:58Z</time>
      </trkpt>
      <trkpt lat="48.59878" lon="-2.55233">
        <ele>48.4</ele>
        <time>2013-09-27T16:28:06Z</time>
      </trkpt>
      <trkpt lat="48.59882" lon="-2.55244">
        <ele>48.3</ele>
        <time>2013-09-27T16:28:13Z</time>
      </trkpt>
      <trkpt lat="48.59887" lon="-2.55255">
        <ele>48.7</ele>
        <time>2013-09-27T16:28:22Z</time>
      </trkpt>
      <trkpt lat="48.59892" lon="-2.55264">
        <ele>50</ele>
        <time>2013-09-27T16:28:30Z</time>
      </trkpt>
      <trkpt lat="48.59893" lon="-2.55265">
        <ele>49.9</ele>
        <time>2013-09-27T16:28:31Z</time>
      </trkpt>
      <trkpt lat="48.59905" lon="-2.55278">
        <ele>51</ele>
        <time>2013-09-27T16:28:43Z</time>
      </trkpt>
      <trkpt lat="48.59911" lon="-2.55285">
        <ele>51.4</ele>
        <time>2013-09-27T16:28:48Z</time>
      </trkpt>
      <trkpt lat="48.59918" lon="-2.55292">
        <ele>51.8</ele>
        <time>2013-09-27T16:28:53Z</time>
      </trkpt>
      <trkpt lat="48.59922" lon="-2.55302">
        <ele>51.9</ele>
        <time>2013-09-27T16:28:59Z</time>
      </trkpt>
      <trkpt lat="48.59921" lon="-2.55315">
        <ele>53.1</ele>
        <time>2013-09-27T16:29:10Z</time>
      </trkpt>
      <trkpt lat="48.59914" lon="-2.55323">
        <ele>50.8</ele>
        <time>2013-09-27T16:29:21Z</time>
      </trkpt>
      <trkpt lat="48.59912" lon="-2.55335">
        <ele>50.5</ele>
        <time>2013-09-27T16:29:33Z</time>
      </trkpt>
      <trkpt lat="48.59912" lon="-2.55337">
        <ele>50.5</ele>
        <time>2013-09-27T16:29:34Z</time>
      </trkpt>
      <trkpt lat="48.59912" lon="-2.55362">
        <ele>48.2</ele>
        <time>2013-09-27T16:29:52Z</time>
      </trkpt>
      <trkpt lat="48.59905" lon="-2.55371">
        <ele>46.6</ele>
        <time>2013-09-27T16:30:00Z</time>
      </trkpt>
      <trkpt lat="48.59898" lon="-2.55376">
        <ele>47.1</ele>
        <time>2013-09-27T16:30:07Z</time>
      </trkpt>
      <trkpt lat="48.5989" lon="-2.55382">
        <ele>46.8</ele>
        <time>2013-09-27T16:30:15Z</time>
      </trkpt>
      <trkpt lat="48.59882" lon="-2.55388">
        <ele>47.4</ele>
        <time>2013-09-27T16:30:38Z</time>
      </trkpt>
      <trkpt lat="48.59882" lon="-2.55389">
        <ele>47.6</ele>
        <time>2013-09-27T16:30:39Z</time>
      </trkpt>
      <trkpt lat="48.59866" lon="-2.55394">
        <ele>47.2</ele>
        <time>2013-09-27T16:30:54Z</time>
      </trkpt>
      <trkpt lat="48.59857" lon="-2.55395">
        <ele>47.1</ele>
        <time>2013-09-27T16:31:02Z</time>
      </trkpt>
      <trkpt lat="48.59849" lon="-2.55395">
        <ele>46.9</ele>
        <time>2013-09-27T16:31:11Z</time>
      </trkpt>
      <trkpt lat="48.59842" lon="-2.55403">
        <ele>46.7</ele>
        <time>2013-09-27T16:31:20Z</time>
      </trkpt>
      <trkpt lat="48.59838" lon="-2.55413">
        <ele>45</ele>
        <time>2013-09-27T16:31:28Z</time>
      </trkpt>
      <trkpt lat="48.59831" lon="-2.5542">
        <ele>44.7</ele>
        <time>2013-09-27T16:31:35Z</time>
      </trkpt>
      <trkpt lat="48.59824" lon="-2.55427">
        <ele>43.9</ele>
        <time>2013-09-27T16:31:41Z</time>
      </trkpt>
      <trkpt lat="48.59823" lon="-2.55428">
        <ele>44.1</ele>
        <time>2013-09-27T16:31:42Z</time>
      </trkpt>
      <trkpt lat="48.59808" lon="-2.55435">
        <ele>42.3</ele>
        <time>2013-09-27T16:32:12Z</time>
      </trkpt>
      <trkpt lat="48.598" lon="-2.55437">
        <ele>41.4</ele>
        <time>2013-09-27T16:32:18Z</time>
      </trkpt>
      <trkpt lat="48.59791" lon="-2.55437">
        <ele>40.9</ele>
        <time>2013-09-27T16:32:24Z</time>
      </trkpt>
      <trkpt lat="48.59784" lon="-2.55431">
        <ele>40.4</ele>
        <time>2013-09-27T16:32:30Z</time>
      </trkpt>
      <trkpt lat="48.59783" lon="-2.55444">
        <ele>36.4</ele>
        <time>2013-09-27T16:33:43Z</time>
      </trkpt>
      <trkpt lat="48.59783" lon="-2.55446">
        <ele>35.5</ele>
        <time>2013-09-27T16:33:44Z</time>
      </trkpt>
      <trkpt lat="48.59782" lon="-2.55469">
        <ele>32.6</ele>
        <time>2013-09-27T16:33:59Z</time>
      </trkpt>
      <trkpt lat="48.59788" lon="-2.55479">
        <ele>29.3</ele>
        <time>2013-09-27T16:34:13Z</time>
      </trkpt>
      <trkpt lat="48.5978" lon="-2.55485">
        <ele>24.9</ele>
        <time>2013-09-27T16:34:33Z</time>
      </trkpt>
      <trkpt lat="48.59773" lon="-2.55478">
        <ele>23.6</ele>
        <time>2013-09-27T16:34:43Z</time>
      </trkpt>
      <trkpt lat="48.59768" lon="-2.55469">
        <ele>21.4</ele>
        <time>2013-09-27T16:34:50Z</time>
      </trkpt>
      <trkpt lat="48.59767" lon="-2.55467">
        <ele>20.9</ele>
        <time>2013-09-27T16:34:51Z</time>
      </trkpt>
      <trkpt lat="48.59759" lon="-2.55447">
        <ele>20.4</ele>
        <time>2013-09-27T16:35:04Z</time>
      </trkpt>
      <trkpt lat="48.59753" lon="-2.55438">
        <ele>20</ele>
        <time>2013-09-27T16:35:11Z</time>
      </trkpt>
      <trkpt lat="48.59746" lon="-2.55429">
        <ele>19.9</ele>
        <time>2013-09-27T16:35:18Z</time>
      </trkpt>
      <trkpt lat="48.5974" lon="-2.55422">
        <ele>20.6</ele>
        <time>2013-09-27T16:35:24Z</time>
      </trkpt>
      <trkpt lat="48.59735" lon="-2.55414">
        <ele>20.4</ele>
        <time>2013-09-27T16:35:30Z</time>
      </trkpt>
      <trkpt lat="48.59729" lon="-2.55403">
        <ele>20.1</ele>
        <time>2013-09-27T16:35:37Z</time>
      </trkpt>
      <trkpt lat="48.59723" lon="-2.55394">
        <ele>19.9</ele>
        <time>2013-09-27T16:35:44Z</time>
      </trkpt>
      <trkpt lat="48.59718" lon="-2.55384">
        <ele>20.1</ele>
        <time>2013-09-27T16:35:50Z</time>
      </trkpt>
      <trkpt lat="48.59713" lon="-2.55373">
        <ele>19.9</ele>
        <time>2013-09-27T16:35:57Z</time>
      </trkpt>
      <trkpt lat="48.59712" lon="-2.55372">
        <ele>19.8</ele>
        <time>2013-09-27T16:35:58Z</time>
      </trkpt>
      <trkpt lat="48.59701" lon="-2.55353">
        <ele>20.3</ele>
        <time>2013-09-27T16:36:11Z</time>
      </trkpt>
      <trkpt lat="48.59696" lon="-2.55343">
        <ele>20.4</ele>
        <time>2013-09-27T16:36:18Z</time>
      </trkpt>
      <trkpt lat="48.59695" lon="-2.55331">
        <ele>20.7</ele>
        <time>2013-09-27T16:36:24Z</time>
      </trkpt>
      <trkpt lat="48.59696" lon="-2.55319">
        <ele>20.1</ele>
        <time>2013-09-27T16:36:30Z</time>
      </trkpt>
      <trkpt lat="48.59696" lon="-2.55306">
        <ele>20</ele>
        <time>2013-09-27T16:36:37Z</time>
      </trkpt>
      <trkpt lat="48.59697" lon="-2.55294">
        <ele>19.8</ele>
        <time>2013-09-27T16:36:43Z</time>
      </trkpt>
      <trkpt lat="48.59693" lon="-2.55305">
        <ele>18.9</ele>
        <time>2013-09-27T16:36:55Z</time>
      </trkpt>
      <trkpt lat="48.59694" lon="-2.55318">
        <ele>18.7</ele>
        <time>2013-09-27T16:37:01Z</time>
      </trkpt>
      <trkpt lat="48.59694" lon="-2.5532">
        <ele>18.7</ele>
        <time>2013-09-27T16:37:02Z</time>
      </trkpt>
      <trkpt lat="48.59695" lon="-2.55342">
        <ele>17.2</ele>
        <time>2013-09-27T16:37:13Z</time>
      </trkpt>
      <trkpt lat="48.59695" lon="-2.55355">
        <ele>16</ele>
        <time>2013-09-27T16:37:20Z</time>
      </trkpt>
      <trkpt lat="48.59693" lon="-2.55368">
        <ele>14.8</ele>
        <time>2013-09-27T16:37:28Z</time>
      </trkpt>
      <trkpt lat="48.59687" lon="-2.55375">
        <ele>14</ele>
        <time>2013-09-27T16:37:34Z</time>
      </trkpt>
      <trkpt lat="48.59679" lon="-2.55379">
        <ele>14.2</ele>
        <time>2013-09-27T16:37:39Z</time>
      </trkpt>
      <trkpt lat="48.59671" lon="-2.55381">
        <ele>14.1</ele>
        <time>2013-09-27T16:37:44Z</time>
      </trkpt>
      <trkpt lat="48.59663" lon="-2.55381">
        <ele>14.2</ele>
        <time>2013-09-27T16:37:49Z</time>
      </trkpt>
      <trkpt lat="48.59655" lon="-2.5538">
        <ele>13.1</ele>
        <time>2013-09-27T16:37:54Z</time>
      </trkpt>
      <trkpt lat="48.59647" lon="-2.55378">
        <ele>13.8</ele>
        <time>2013-09-27T16:37:59Z</time>
      </trkpt>
      <trkpt lat="48.59638" lon="-2.55377">
        <ele>14</ele>
        <time>2013-09-27T16:38:05Z</time>
      </trkpt>
      <trkpt lat="48.59637" lon="-2.55377">
        <ele>13.9</ele>
        <time>2013-09-27T16:38:06Z</time>
      </trkpt>
      <trkpt lat="48.59622" lon="-2.55378">
        <ele>13.3</ele>
        <time>2013-09-27T16:38:17Z</time>
      </trkpt>
      <trkpt lat="48.59613" lon="-2.55376">
        <ele>13.3</ele>
        <time>2013-09-27T16:38:23Z</time>
      </trkpt>
      <trkpt lat="48.59605" lon="-2.55376">
        <ele>13.1</ele>
        <time>2013-09-27T16:38:29Z</time>
      </trkpt>
      <trkpt lat="48.59596" lon="-2.55376">
        <ele>12.5</ele>
        <time>2013-09-27T16:38:45Z</time>
      </trkpt>
      <trkpt lat="48.59588" lon="-2.55378">
        <ele>12.9</ele>
        <time>2013-09-27T16:38:52Z</time>
      </trkpt>
      <trkpt lat="48.5958" lon="-2.5538">
        <ele>13</ele>
        <time>2013-09-27T16:38:58Z</time>
      </trkpt>
      <trkpt lat="48.59572" lon="-2.55383">
        <ele>13</ele>
        <time>2013-09-27T16:39:04Z</time>
      </trkpt>
      <trkpt lat="48.59564" lon="-2.55385">
        <ele>12.5</ele>
        <time>2013-09-27T16:39:10Z</time>
      </trkpt>
      <trkpt lat="48.59563" lon="-2.55385">
        <ele>12.6</ele>
        <time>2013-09-27T16:39:11Z</time>
      </trkpt>
      <trkpt lat="48.59548" lon="-2.55389">
        <ele>13</ele>
        <time>2013-09-27T16:39:22Z</time>
      </trkpt>
      <trkpt lat="48.59541" lon="-2.55392">
        <ele>12.6</ele>
        <time>2013-09-27T16:39:28Z</time>
      </trkpt>
      <trkpt lat="48.59533" lon="-2.55394">
        <ele>12.3</ele>
        <time>2013-09-27T16:39:34Z</time>
      </trkpt>
      <trkpt lat="48.59525" lon="-2.55396">
        <ele>12.7</ele>
        <time>2013-09-27T16:39:40Z</time>
      </trkpt>
      <trkpt lat="48.59517" lon="-2.55398">
        <ele>12.3</ele>
        <time>2013-09-27T16:39:46Z</time>
      </trkpt>
      <trkpt lat="48.5951" lon="-2.554">
        <ele>12.9</ele>
        <time>2013-09-27T16:39:52Z</time>
      </trkpt>
      <trkpt lat="48.59502" lon="-2.55404">
        <ele>12.4</ele>
        <time>2013-09-27T16:39:58Z</time>
      </trkpt>
      <trkpt lat="48.59494" lon="-2.55407">
        <ele>12</ele>
        <time>2013-09-27T16:40:04Z</time>
      </trkpt>
      <trkpt lat="48.59487" lon="-2.55411">
        <ele>12.7</ele>
        <time>2013-09-27T16:40:10Z</time>
      </trkpt>
      <trkpt lat="48.59478" lon="-2.55414">
        <ele>11.9</ele>
        <time>2013-09-27T16:40:16Z</time>
      </trkpt>
      <trkpt lat="48.59477" lon="-2.55414">
        <ele>12.3</ele>
        <time>2013-09-27T16:40:17Z</time>
      </trkpt>
      <trkpt lat="48.59462" lon="-2.5542">
        <ele>11.8</ele>
        <time>2013-09-27T16:40:28Z</time>
      </trkpt>
      <trkpt lat="48.59455" lon="-2.55423">
        <ele>12.3</ele>
        <time>2013-09-27T16:40:34Z</time>
      </trkpt>
      <trkpt lat="48.59446" lon="-2.55426">
        <ele>12.9</ele>
        <time>2013-09-27T16:40:41Z</time>
      </trkpt>
      <trkpt lat="48.59438" lon="-2.5543">
        <ele>12.8</ele>
        <time>2013-09-27T16:40:47Z</time>
      </trkpt>
      <trkpt lat="48.59431" lon="-2.55434">
        <ele>12.3</ele>
        <time>2013-09-27T16:40:53Z</time>
      </trkpt>
      <trkpt lat="48.59423" lon="-2.55437">
        <ele>11.7</ele>
        <time>2013-09-27T16:40:59Z</time>
      </trkpt>
      <trkpt lat="48.59416" lon="-2.55441">
        <ele>12.1</ele>
        <time>2013-09-27T16:41:05Z</time>
      </trkpt>
      <trkpt lat="48.59408" lon="-2.55445">
        <ele>12.3</ele>
        <time>2013-09-27T16:41:11Z</time>
      </trkpt>
      <trkpt lat="48.59401" lon="-2.55449">
        <ele>12.4</ele>
        <time>2013-09-27T16:41:17Z</time>
      </trkpt>
      <trkpt lat="48.594" lon="-2.5545">
        <ele>12.3</ele>
        <time>2013-09-27T16:41:18Z</time>
      </trkpt>
      <trkpt lat="48.59386" lon="-2.55456">
        <ele>12.3</ele>
        <time>2013-09-27T16:41:29Z</time>
      </trkpt>
      <trkpt lat="48.59378" lon="-2.55461">
        <ele>13.1</ele>
        <time>2013-09-27T16:41:36Z</time>
      </trkpt>
      <trkpt lat="48.59371" lon="-2.55465">
        <ele>13</ele>
        <time>2013-09-27T16:41:42Z</time>
      </trkpt>
      <trkpt lat="48.59364" lon="-2.55471">
        <ele>12.7</ele>
        <time>2013-09-27T16:41:48Z</time>
      </trkpt>
      <trkpt lat="48.59355" lon="-2.55476">
        <ele>13.3</ele>
        <time>2013-09-27T16:41:55Z</time>
      </trkpt>
      <trkpt lat="48.59347" lon="-2.55482">
        <ele>13.2</ele>
        <time>2013-09-27T16:42:02Z</time>
      </trkpt>
      <trkpt lat="48.5934" lon="-2.55486">
        <ele>13</ele>
        <time>2013-09-27T16:42:08Z</time>
      </trkpt>
      <trkpt lat="48.59333" lon="-2.55492">
        <ele>12.5</ele>
        <time>2013-09-27T16:42:14Z</time>
      </trkpt>
      <trkpt lat="48.59326" lon="-2.55498">
        <ele>11.8</ele>
        <time>2013-09-27T16:42:20Z</time>
      </trkpt>
      <trkpt lat="48.59325" lon="-2.55499">
        <ele>11.6</ele>
        <time>2013-09-27T16:42:21Z</time>
      </trkpt>
      <trkpt lat="48.59311" lon="-2.55509">
        <ele>12.4</ele>
        <time>2013-09-27T16:42:32Z</time>
      </trkpt>
      <trkpt lat="48.59304" lon="-2.55514">
        <ele>12.3</ele>
        <time>2013-09-27T16:42:38Z</time>
      </trkpt>
      <trkpt lat="48.59297" lon="-2.5552">
        <ele>12.6</ele>
        <time>2013-09-27T16:42:44Z</time>
      </trkpt>
      <trkpt lat="48.59289" lon="-2.55526">
        <ele>11.9</ele>
        <time>2013-09-27T16:42:50Z</time>
      </trkpt>
      <trkpt lat="48.59283" lon="-2.55532">
        <ele>11.9</ele>
        <time>2013-09-27T16:42:56Z</time>
      </trkpt>
      <trkpt lat="48.59276" lon="-2.55537">
        <ele>12.4</ele>
        <time>2013-09-27T16:43:02Z</time>
      </trkpt>
      <trkpt lat="48.59269" lon="-2.55543">
        <ele>12.4</ele>
        <time>2013-09-27T16:43:08Z</time>
      </trkpt>
      <trkpt lat="48.59262" lon="-2.55549">
        <ele>13.2</ele>
        <time>2013-09-27T16:43:14Z</time>
      </trkpt>
      <trkpt lat="48.59254" lon="-2.55555">
        <ele>12.4</ele>
        <time>2013-09-27T16:43:20Z</time>
      </trkpt>
      <trkpt lat="48.59246" lon="-2.5556">
        <ele>12.3</ele>
        <time>2013-09-27T16:43:27Z</time>
      </trkpt>
      <trkpt lat="48.59246" lon="-2.55561">
        <ele>12.2</ele>
        <time>2013-09-27T16:43:28Z</time>
      </trkpt>
      <trkpt lat="48.59234" lon="-2.55576">
        <ele>12.4</ele>
        <time>2013-09-27T16:43:56Z</time>
      </trkpt>
      <trkpt lat="48.59227" lon="-2.55582">
        <ele>12.8</ele>
        <time>2013-09-27T16:44:02Z</time>
      </trkpt>
      <trkpt lat="48.5922" lon="-2.55588">
        <ele>12.8</ele>
        <time>2013-09-27T16:44:08Z</time>
      </trkpt>
      <trkpt lat="48.59213" lon="-2.55594">
        <ele>12.6</ele>
        <time>2013-09-27T16:44:14Z</time>
      </trkpt>
      <trkpt lat="48.59207" lon="-2.55603">
        <ele>12.7</ele>
        <time>2013-09-27T16:44:35Z</time>
      </trkpt>
      <trkpt lat="48.59206" lon="-2.55604">
        <ele>12.7</ele>
        <time>2013-09-27T16:44:36Z</time>
      </trkpt>
      <trkpt lat="48.59193" lon="-2.55614">
        <ele>13.2</ele>
        <time>2013-09-27T16:44:58Z</time>
      </trkpt>
      <trkpt lat="48.59185" lon="-2.5562">
        <ele>13</ele>
        <time>2013-09-27T16:45:05Z</time>
      </trkpt>
      <trkpt lat="48.59177" lon="-2.55626">
        <ele>12.9</ele>
        <time>2013-09-27T16:45:12Z</time>
      </trkpt>
      <trkpt lat="48.5917" lon="-2.55631">
        <ele>12.1</ele>
        <time>2013-09-27T16:45:18Z</time>
      </trkpt>
      <trkpt lat="48.59162" lon="-2.55637">
        <ele>12.4</ele>
        <time>2013-09-27T16:45:25Z</time>
      </trkpt>
      <trkpt lat="48.59156" lon="-2.55644">
        <ele>12.8</ele>
        <time>2013-09-27T16:45:45Z</time>
      </trkpt>
      <trkpt lat="48.59155" lon="-2.55645">
        <ele>12.8</ele>
        <time>2013-09-27T16:45:46Z</time>
      </trkpt>
      <trkpt lat="48.59142" lon="-2.55657">
        <ele>14</ele>
        <time>2013-09-27T16:46:05Z</time>
      </trkpt>
      <trkpt lat="48.59136" lon="-2.55665">
        <ele>13.3</ele>
        <time>2013-09-27T16:46:12Z</time>
      </trkpt>
      <trkpt lat="48.59129" lon="-2.55672">
        <ele>12.6</ele>
        <time>2013-09-27T16:46:18Z</time>
      </trkpt>
      <trkpt lat="48.59123" lon="-2.55679">
        <ele>13.1</ele>
        <time>2013-09-27T16:46:24Z</time>
      </trkpt>
      <trkpt lat="48.59116" lon="-2.55687">
        <ele>12.9</ele>
        <time>2013-09-27T16:46:33Z</time>
      </trkpt>
      <trkpt lat="48.59109" lon="-2.55693">
        <ele>12.6</ele>
        <time>2013-09-27T16:46:41Z</time>
      </trkpt>
      <trkpt lat="48.59101" lon="-2.55701">
        <ele>11.8</ele>
        <time>2013-09-27T16:46:49Z</time>
      </trkpt>
      <trkpt lat="48.591" lon="-2.55702">
        <ele>12.1</ele>
        <time>2013-09-27T16:46:50Z</time>
      </trkpt>
      <trkpt lat="48.59087" lon="-2.55714">
        <ele>12.4</ele>
        <time>2013-09-27T16:47:03Z</time>
      </trkpt>
      <trkpt lat="48.5908" lon="-2.55721">
        <ele>12.4</ele>
        <time>2013-09-27T16:47:09Z</time>
      </trkpt>
      <trkpt lat="48.59074" lon="-2.55728">
        <ele>13.1</ele>
        <time>2013-09-27T16:47:15Z</time>
      </trkpt>
      <trkpt lat="48.59068" lon="-2.55736">
        <ele>12.9</ele>
        <time>2013-09-27T16:47:21Z</time>
      </trkpt>
      <trkpt lat="48.5906" lon="-2.55743">
        <ele>12.5</ele>
        <time>2013-09-27T16:47:27Z</time>
      </trkpt>
      <trkpt lat="48.59054" lon="-2.55749">
        <ele>12.6</ele>
        <time>2013-09-27T16:47:33Z</time>
      </trkpt>
      <trkpt lat="48.59047" lon="-2.55756">
        <ele>13.3</ele>
        <time>2013-09-27T16:47:39Z</time>
      </trkpt>
      <trkpt lat="48.5904" lon="-2.55763">
        <ele>12.6</ele>
        <time>2013-09-27T16:47:45Z</time>
      </trkpt>
      <trkpt lat="48.59033" lon="-2.55769">
        <ele>12.5</ele>
        <time>2013-09-27T16:47:51Z</time>
      </trkpt>
      <trkpt lat="48.59032" lon="-2.5577">
        <ele>12.5</ele>
        <time>2013-09-27T16:47:52Z</time>
      </trkpt>
      <trkpt lat="48.59019" lon="-2.55783">
        <ele>11.3</ele>
        <time>2013-09-27T16:48:03Z</time>
      </trkpt>
      <trkpt lat="48.59013" lon="-2.5579">
        <ele>12</ele>
        <time>2013-09-27T16:48:09Z</time>
      </trkpt>
      <trkpt lat="48.59007" lon="-2.55798">
        <ele>11.9</ele>
        <time>2013-09-27T16:48:15Z</time>
      </trkpt>
      <trkpt lat="48.59001" lon="-2.55805">
        <ele>12.7</ele>
        <time>2013-09-27T16:48:21Z</time>
      </trkpt>
      <trkpt lat="48.58994" lon="-2.55812">
        <ele>12.7</ele>
        <time>2013-09-27T16:48:27Z</time>
      </trkpt>
      <trkpt lat="48.58988" lon="-2.55819">
        <ele>12.4</ele>
        <time>2013-09-27T16:48:33Z</time>
      </trkpt>
      <trkpt lat="48.58981" lon="-2.55826">
        <ele>12</ele>
        <time>2013-09-27T16:48:39Z</time>
      </trkpt>
      <trkpt lat="48.58974" lon="-2.55833">
        <ele>12.9</ele>
        <time>2013-09-27T16:48:45Z</time>
      </trkpt>
      <trkpt lat="48.58968" lon="-2.55841">
        <ele>12.8</ele>
        <time>2013-09-27T16:48:51Z</time>
      </trkpt>
      <trkpt lat="48.58962" lon="-2.55848">
        <ele>12.5</ele>
        <time>2013-09-27T16:48:57Z</time>
      </trkpt>
      <trkpt lat="48.58961" lon="-2.55849">
        <ele>12.6</ele>
        <time>2013-09-27T16:48:58Z</time>
      </trkpt>
      <trkpt lat="48.58948" lon="-2.55862">
        <ele>12.9</ele>
        <time>2013-09-27T16:49:09Z</time>
      </trkpt>
      <trkpt lat="48.58941" lon="-2.55869">
        <ele>13.2</ele>
        <time>2013-09-27T16:49:15Z</time>
      </trkpt>
      <trkpt lat="48.58934" lon="-2.55877">
        <ele>12.8</ele>
        <time>2013-09-27T16:49:21Z</time>
      </trkpt>
      <trkpt lat="48.58927" lon="-2.55884">
        <ele>13</ele>
        <time>2013-09-27T16:49:27Z</time>
      </trkpt>
      <trkpt lat="48.58921" lon="-2.55891">
        <ele>13.1</ele>
        <time>2013-09-27T16:49:33Z</time>
      </trkpt>
      <trkpt lat="48.58914" lon="-2.55898">
        <ele>13.2</ele>
        <time>2013-09-27T16:49:39Z</time>
      </trkpt>
      <trkpt lat="48.58908" lon="-2.55906">
        <ele>13.3</ele>
        <time>2013-09-27T16:49:45Z</time>
      </trkpt>
      <trkpt lat="48.58901" lon="-2.55914">
        <ele>13.2</ele>
        <time>2013-09-27T16:49:51Z</time>
      </trkpt>
      <trkpt lat="48.58895" lon="-2.55921">
        <ele>13.2</ele>
        <time>2013-09-27T16:49:57Z</time>
      </trkpt>
      <trkpt lat="48.58889" lon="-2.55929">
        <ele>13.2</ele>
        <time>2013-09-27T16:50:03Z</time>
      </trkpt>
      <trkpt lat="48.58888" lon="-2.5593">
        <ele>13.1</ele>
        <time>2013-09-27T16:50:04Z</time>
      </trkpt>
      <trkpt lat="48.58877" lon="-2.55946">
        <ele>12.7</ele>
        <time>2013-09-27T16:50:15Z</time>
      </trkpt>
      <trkpt lat="48.58871" lon="-2.55954">
        <ele>13.1</ele>
        <time>2013-09-27T16:50:21Z</time>
      </trkpt>
      <trkpt lat="48.58864" lon="-2.55962">
        <ele>13.1</ele>
        <time>2013-09-27T16:50:28Z</time>
      </trkpt>
      <trkpt lat="48.58858" lon="-2.55969">
        <ele>13</ele>
        <time>2013-09-27T16:50:34Z</time>
      </trkpt>
      <trkpt lat="48.58852" lon="-2.55976">
        <ele>13.3</ele>
        <time>2013-09-27T16:50:40Z</time>
      </trkpt>
      <trkpt lat="48.58845" lon="-2.55982">
        <ele>13.3</ele>
        <time>2013-09-27T16:50:46Z</time>
      </trkpt>
      <trkpt lat="48.58838" lon="-2.55988">
        <ele>13.4</ele>
        <time>2013-09-27T16:50:52Z</time>
      </trkpt>
      <trkpt lat="48.58831" lon="-2.55993">
        <ele>13.1</ele>
        <time>2013-09-27T16:50:58Z</time>
      </trkpt>
      <trkpt lat="48.58824" lon="-2.55999">
        <ele>13.3</ele>
        <time>2013-09-27T16:51:04Z</time>
      </trkpt>
      <trkpt lat="48.58823" lon="-2.56">
        <ele>13</ele>
        <time>2013-09-27T16:51:05Z</time>
      </trkpt>
      <trkpt lat="48.5881" lon="-2.5601">
        <ele>13.8</ele>
        <time>2013-09-27T16:51:16Z</time>
      </trkpt>
      <trkpt lat="48.58803" lon="-2.56016">
        <ele>13.6</ele>
        <time>2013-09-27T16:51:22Z</time>
      </trkpt>
      <trkpt lat="48.58796" lon="-2.56022">
        <ele>13.6</ele>
        <time>2013-09-27T16:51:28Z</time>
      </trkpt>
      <trkpt lat="48.58789" lon="-2.56029">
        <ele>13.6</ele>
        <time>2013-09-27T16:51:35Z</time>
      </trkpt>
      <trkpt lat="48.58781" lon="-2.56035">
        <ele>13.9</ele>
        <time>2013-09-27T16:51:42Z</time>
      </trkpt>
      <trkpt lat="48.58773" lon="-2.56042">
        <ele>13.6</ele>
        <time>2013-09-27T16:51:49Z</time>
      </trkpt>
      <trkpt lat="48.58766" lon="-2.56048">
        <ele>14.1</ele>
        <time>2013-09-27T16:51:55Z</time>
      </trkpt>
      <trkpt lat="48.58759" lon="-2.56054">
        <ele>15.1</ele>
        <time>2013-09-27T16:52:01Z</time>
      </trkpt>
      <trkpt lat="48.58753" lon="-2.5606">
        <ele>14.1</ele>
        <time>2013-09-27T16:52:07Z</time>
      </trkpt>
      <trkpt lat="48.58751" lon="-2.56061">
        <ele>13.9</ele>
        <time>2013-09-27T16:52:08Z</time>
      </trkpt>
      <trkpt lat="48.58739" lon="-2.56072">
        <ele>13.6</ele>
        <time>2013-09-27T16:52:19Z</time>
      </trkpt>
      <trkpt lat="48.58731" lon="-2.56079">
        <ele>13.9</ele>
        <time>2013-09-27T16:52:26Z</time>
      </trkpt>
      <trkpt lat="48.58725" lon="-2.56085">
        <ele>13.6</ele>
        <time>2013-09-27T16:52:32Z</time>
      </trkpt>
      <trkpt lat="48.58717" lon="-2.56091">
        <ele>14.7</ele>
        <time>2013-09-27T16:52:38Z</time>
      </trkpt>
      <trkpt lat="48.5871" lon="-2.56097">
        <ele>14.8</ele>
        <time>2013-09-27T16:52:44Z</time>
      </trkpt>
      <trkpt lat="48.58703" lon="-2.56103">
        <ele>14.1</ele>
        <time>2013-09-27T16:52:50Z</time>
      </trkpt>
      <trkpt lat="48.58697" lon="-2.5611">
        <ele>15.1</ele>
        <time>2013-09-27T16:52:56Z</time>
      </trkpt>
      <trkpt lat="48.58689" lon="-2.56117">
        <ele>14.3</ele>
        <time>2013-09-27T16:53:03Z</time>
      </trkpt>
      <trkpt lat="48.58683" lon="-2.56125">
        <ele>14.4</ele>
        <time>2013-09-27T16:53:10Z</time>
      </trkpt>
      <trkpt lat="48.58682" lon="-2.56126">
        <ele>13.8</ele>
        <time>2013-09-27T16:53:11Z</time>
      </trkpt>
      <trkpt lat="48.5867" lon="-2.56139">
        <ele>16.1</ele>
        <time>2013-09-27T16:53:22Z</time>
      </trkpt>
      <trkpt lat="48.58663" lon="-2.56146">
        <ele>14.5</ele>
        <time>2013-09-27T16:53:29Z</time>
      </trkpt>
      <trkpt lat="48.58656" lon="-2.56155">
        <ele>15.2</ele>
        <time>2013-09-27T16:53:36Z</time>
      </trkpt>
      <trkpt lat="48.58649" lon="-2.56163">
        <ele>14.9</ele>
        <time>2013-09-27T16:53:43Z</time>
      </trkpt>
      <trkpt lat="48.58644" lon="-2.56172">
        <ele>15</ele>
        <time>2013-09-27T16:53:49Z</time>
      </trkpt>
      <trkpt lat="48.58637" lon="-2.56181">
        <ele>15.2</ele>
        <time>2013-09-27T16:53:56Z</time>
      </trkpt>
      <trkpt lat="48.58631" lon="-2.56189">
        <ele>14.6</ele>
        <time>2013-09-27T16:54:03Z</time>
      </trkpt>
      <trkpt lat="48.58623" lon="-2.56197">
        <ele>15.4</ele>
        <time>2013-09-27T16:54:10Z</time>
      </trkpt>
      <trkpt lat="48.58617" lon="-2.56203">
        <ele>15.3</ele>
        <time>2013-09-27T16:54:16Z</time>
      </trkpt>
      <trkpt lat="48.58615" lon="-2.56204">
        <ele>15.5</ele>
        <time>2013-09-27T16:54:17Z</time>
      </trkpt>
      <trkpt lat="48.58602" lon="-2.56215">
        <ele>15.4</ele>
        <time>2013-09-27T16:54:30Z</time>
      </trkpt>
      <trkpt lat="48.58594" lon="-2.56221">
        <ele>14.4</ele>
        <time>2013-09-27T16:54:37Z</time>
      </trkpt>
      <trkpt lat="48.58587" lon="-2.56228">
        <ele>14.7</ele>
        <time>2013-09-27T16:54:44Z</time>
      </trkpt>
      <trkpt lat="48.58578" lon="-2.56233">
        <ele>15.8</ele>
        <time>2013-09-27T16:54:51Z</time>
      </trkpt>
      <trkpt lat="48.5857" lon="-2.56238">
        <ele>15.6</ele>
        <time>2013-09-27T16:54:58Z</time>
      </trkpt>
      <trkpt lat="48.58562" lon="-2.56245">
        <ele>15.6</ele>
        <time>2013-09-27T16:55:05Z</time>
      </trkpt>
      <trkpt lat="48.58554" lon="-2.5625">
        <ele>16.1</ele>
        <time>2013-09-27T16:55:12Z</time>
      </trkpt>
      <trkpt lat="48.58546" lon="-2.56256">
        <ele>15.7</ele>
        <time>2013-09-27T16:55:19Z</time>
      </trkpt>
      <trkpt lat="48.58545" lon="-2.56256">
        <ele>15.8</ele>
        <time>2013-09-27T16:55:20Z</time>
      </trkpt>
      <trkpt lat="48.58531" lon="-2.56265">
        <ele>15.9</ele>
        <time>2013-09-27T16:55:32Z</time>
      </trkpt>
      <trkpt lat="48.58523" lon="-2.56269">
        <ele>16.3</ele>
        <time>2013-09-27T16:55:38Z</time>
      </trkpt>
      <trkpt lat="48.58515" lon="-2.56273">
        <ele>15.8</ele>
        <time>2013-09-27T16:55:45Z</time>
      </trkpt>
      <trkpt lat="48.58506" lon="-2.56276">
        <ele>15.5</ele>
        <time>2013-09-27T16:55:52Z</time>
      </trkpt>
      <trkpt lat="48.58498" lon="-2.56279">
        <ele>15.7</ele>
        <time>2013-09-27T16:55:59Z</time>
      </trkpt>
      <trkpt lat="48.5849" lon="-2.56281">
        <ele>16.7</ele>
        <time>2013-09-27T16:56:06Z</time>
      </trkpt>
      <trkpt lat="48.58481" lon="-2.56284">
        <ele>16.4</ele>
        <time>2013-09-27T16:56:13Z</time>
      </trkpt>
      <trkpt lat="48.58473" lon="-2.56279">
        <ele>17.5</ele>
        <time>2013-09-27T16:56:21Z</time>
      </trkpt>
      <trkpt lat="48.58472" lon="-2.56278">
        <ele>17.6</ele>
        <time>2013-09-27T16:56:22Z</time>
      </trkpt>
      <trkpt lat="48.58467" lon="-2.56256">
        <ele>19.4</ele>
        <time>2013-09-27T16:56:37Z</time>
      </trkpt>
      <trkpt lat="48.58466" lon="-2.56243">
        <ele>20.6</ele>
        <time>2013-09-27T16:56:46Z</time>
      </trkpt>
      <trkpt lat="48.58466" lon="-2.5623">
        <ele>21.4</ele>
        <time>2013-09-27T16:56:56Z</time>
      </trkpt>
      <trkpt lat="48.58463" lon="-2.56219">
        <ele>22.7</ele>
        <time>2013-09-27T16:57:04Z</time>
      </trkpt>
      <trkpt lat="48.58458" lon="-2.56208">
        <ele>22.9</ele>
        <time>2013-09-27T16:57:13Z</time>
      </trkpt>
      <trkpt lat="48.5846" lon="-2.5622">
        <ele>22.8</ele>
        <time>2013-09-27T16:57:27Z</time>
      </trkpt>
      <trkpt lat="48.58461" lon="-2.56221">
        <ele>23</ele>
        <time>2013-09-27T16:57:28Z</time>
      </trkpt>
      <trkpt lat="48.58456" lon="-2.56243">
        <ele>22.1</ele>
        <time>2013-09-27T16:57:41Z</time>
      </trkpt>
      <trkpt lat="48.58451" lon="-2.56252">
        <ele>22.6</ele>
        <time>2013-09-27T16:57:47Z</time>
      </trkpt>
      <trkpt lat="48.58446" lon="-2.56262">
        <ele>22.5</ele>
        <time>2013-09-27T16:57:54Z</time>
      </trkpt>
      <trkpt lat="48.58441" lon="-2.56272">
        <ele>22.3</ele>
        <time>2013-09-27T16:58:01Z</time>
      </trkpt>
      <trkpt lat="48.58432" lon="-2.56276">
        <ele>21.9</ele>
        <time>2013-09-27T16:58:09Z</time>
      </trkpt>
      <trkpt lat="48.58424" lon="-2.56271">
        <ele>21.4</ele>
        <time>2013-09-27T16:58:16Z</time>
      </trkpt>
      <trkpt lat="48.58416" lon="-2.56267">
        <ele>22.4</ele>
        <time>2013-09-27T16:58:22Z</time>
      </trkpt>
      <trkpt lat="48.58408" lon="-2.56267">
        <ele>22.7</ele>
        <time>2013-09-27T16:58:31Z</time>
      </trkpt>
      <trkpt lat="48.58407" lon="-2.56268">
        <ele>23.4</ele>
        <time>2013-09-27T16:58:32Z</time>
      </trkpt>
      <trkpt lat="48.584" lon="-2.56289">
        <ele>26.1</ele>
        <time>2013-09-27T16:58:49Z</time>
      </trkpt>
      <trkpt lat="48.584" lon="-2.56301">
        <ele>28.7</ele>
        <time>2013-09-27T16:58:58Z</time>
      </trkpt>
      <trkpt lat="48.584" lon="-2.56314">
        <ele>27.9</ele>
        <time>2013-09-27T16:59:07Z</time>
      </trkpt>
      <trkpt lat="48.58399" lon="-2.56327">
        <ele>29.9</ele>
        <time>2013-09-27T16:59:16Z</time>
      </trkpt>
      <trkpt lat="48.584" lon="-2.5634">
        <ele>32.4</ele>
        <time>2013-09-27T16:59:28Z</time>
      </trkpt>
      <trkpt lat="48.58395" lon="-2.56352">
        <ele>34.7</ele>
        <time>2013-09-27T16:59:38Z</time>
      </trkpt>
      <trkpt lat="48.58394" lon="-2.56353">
        <ele>34.9</ele>
        <time>2013-09-27T16:59:39Z</time>
      </trkpt>
      <trkpt lat="48.58386" lon="-2.56372">
        <ele>36.2</ele>
        <time>2013-09-27T16:59:52Z</time>
      </trkpt>
      <trkpt lat="48.58384" lon="-2.56385">
        <ele>36.8</ele>
        <time>2013-09-27T16:59:59Z</time>
      </trkpt>
      <trkpt lat="48.58383" lon="-2.56397">
        <ele>37</ele>
        <time>2013-09-27T17:00:06Z</time>
      </trkpt>
      <trkpt lat="48.58383" lon="-2.56409">
        <ele>37.6</ele>
        <time>2013-09-27T17:00:13Z</time>
      </trkpt>
      <trkpt lat="48.58375" lon="-2.56417">
        <ele>38.4</ele>
        <time>2013-09-27T17:03:51Z</time>
      </trkpt>
      <trkpt lat="48.58375" lon="-2.56417">
        <ele>38.5</ele>
        <time>2013-09-27T17:03:52Z</time>
      </trkpt>
      <trkpt lat="48.58384" lon="-2.56438">
        <ele>40.6</ele>
        <time>2013-09-27T17:04:53Z</time>
      </trkpt>
      <trkpt lat="48.58384" lon="-2.56439">
        <ele>40.6</ele>
        <time>2013-09-27T17:04:54Z</time>
      </trkpt>
      <trkpt lat="48.58392" lon="-2.5646">
        <ele>40.3</ele>
        <time>2013-09-27T17:05:08Z</time>
      </trkpt>
      <trkpt lat="48.584" lon="-2.56467">
        <ele>40.4</ele>
        <time>2013-09-27T17:05:16Z</time>
      </trkpt>
      <trkpt lat="48.58408" lon="-2.56463">
        <ele>39.1</ele>
        <time>2013-09-27T17:05:28Z</time>
      </trkpt>
      <trkpt lat="48.58416" lon="-2.56459">
        <ele>38</ele>
        <time>2013-09-27T17:05:38Z</time>
      </trkpt>
      <trkpt lat="48.58425" lon="-2.56456">
        <ele>34.2</ele>
        <time>2013-09-27T17:06:20Z</time>
      </trkpt>
      <trkpt lat="48.58425" lon="-2.56456">
        <ele>34.1</ele>
        <time>2013-09-27T17:06:21Z</time>
      </trkpt>
      <trkpt lat="48.58437" lon="-2.5646">
        <ele>33.4</ele>
        <time>2013-09-27T17:06:47Z</time>
      </trkpt>
      <trkpt lat="48.58441" lon="-2.56472">
        <ele>33</ele>
        <time>2013-09-27T17:06:54Z</time>
      </trkpt>
      <trkpt lat="48.58441" lon="-2.56485">
        <ele>35.3</ele>
        <time>2013-09-27T17:07:23Z</time>
      </trkpt>
      <trkpt lat="48.5844" lon="-2.56487">
        <ele>35.4</ele>
        <time>2013-09-27T17:07:24Z</time>
      </trkpt>
      <trkpt lat="48.58441" lon="-2.56511">
        <ele>35.2</ele>
        <time>2013-09-27T17:07:37Z</time>
      </trkpt>
      <trkpt lat="48.58441" lon="-2.56523">
        <ele>35.3</ele>
        <time>2013-09-27T17:07:43Z</time>
      </trkpt>
      <trkpt lat="48.58441" lon="-2.56537">
        <ele>35.3</ele>
        <time>2013-09-27T17:07:50Z</time>
      </trkpt>
      <trkpt lat="48.58441" lon="-2.56549">
        <ele>35</ele>
        <time>2013-09-27T17:07:57Z</time>
      </trkpt>
      <trkpt lat="48.58441" lon="-2.56561">
        <ele>35.2</ele>
        <time>2013-09-27T17:08:03Z</time>
      </trkpt>
      <trkpt lat="48.58437" lon="-2.56573">
        <ele>34.7</ele>
        <time>2013-09-27T17:08:10Z</time>
      </trkpt>
      <trkpt lat="48.5843" lon="-2.56579">
        <ele>34.8</ele>
        <time>2013-09-27T17:08:16Z</time>
      </trkpt>
      <trkpt lat="48.58421" lon="-2.56579">
        <ele>35.9</ele>
        <time>2013-09-27T17:08:23Z</time>
      </trkpt>
      <trkpt lat="48.58415" lon="-2.56587">
        <ele>35.8</ele>
        <time>2013-09-27T17:08:36Z</time>
      </trkpt>
      <trkpt lat="48.58415" lon="-2.56588">
        <ele>35.7</ele>
        <time>2013-09-27T17:08:37Z</time>
      </trkpt>
      <trkpt lat="48.58403" lon="-2.56603">
        <ele>31.8</ele>
        <time>2013-09-27T17:08:50Z</time>
      </trkpt>
      <trkpt lat="48.58394" lon="-2.56605">
        <ele>30.5</ele>
        <time>2013-09-27T17:08:56Z</time>
      </trkpt>
      <trkpt lat="48.58387" lon="-2.56599">
        <ele>29.7</ele>
        <time>2013-09-27T17:09:03Z</time>
      </trkpt>
      <trkpt lat="48.58387" lon="-2.56586">
        <ele>31.2</ele>
        <time>2013-09-27T17:09:12Z</time>
      </trkpt>
      <trkpt lat="48.58385" lon="-2.56574">
        <ele>31.2</ele>
        <time>2013-09-27T17:09:20Z</time>
      </trkpt>
      <trkpt lat="48.58379" lon="-2.56565">
        <ele>32</ele>
        <time>2013-09-27T17:09:26Z</time>
      </trkpt>
      <trkpt lat="48.58372" lon="-2.56557">
        <ele>31.8</ele>
        <time>2013-09-27T17:09:33Z</time>
      </trkpt>
      <trkpt lat="48.58367" lon="-2.56548">
        <ele>34.1</ele>
        <time>2013-09-27T17:09:40Z</time>
      </trkpt>
      <trkpt lat="48.58366" lon="-2.56546">
        <ele>34.4</ele>
        <time>2013-09-27T17:09:41Z</time>
      </trkpt>
      <trkpt lat="48.58353" lon="-2.56536">
        <ele>36.9</ele>
        <time>2013-09-27T17:09:59Z</time>
      </trkpt>
      <trkpt lat="48.58344" lon="-2.56533">
        <ele>38.2</ele>
        <time>2013-09-27T17:10:07Z</time>
      </trkpt>
      <trkpt lat="48.58336" lon="-2.56533">
        <ele>37.3</ele>
        <time>2013-09-27T17:10:13Z</time>
      </trkpt>
      <trkpt lat="48.58328" lon="-2.56532">
        <ele>37.1</ele>
        <time>2013-09-27T17:10:19Z</time>
      </trkpt>
      <trkpt lat="48.5832" lon="-2.56531">
        <ele>37.1</ele>
        <time>2013-09-27T17:10:25Z</time>
      </trkpt>
      <trkpt lat="48.58312" lon="-2.56533">
        <ele>36.1</ele>
        <time>2013-09-27T17:10:31Z</time>
      </trkpt>
      <trkpt lat="48.58304" lon="-2.56536">
        <ele>35</ele>
        <time>2013-09-27T17:10:37Z</time>
      </trkpt>
      <trkpt lat="48.58296" lon="-2.56542">
        <ele>35.7</ele>
        <time>2013-09-27T17:10:44Z</time>
      </trkpt>
      <trkpt lat="48.58295" lon="-2.56543">
        <ele>35.8</ele>
        <time>2013-09-27T17:10:45Z</time>
      </trkpt>
      <trkpt lat="48.58282" lon="-2.56558">
        <ele>34.6</ele>
        <time>2013-09-27T17:11:00Z</time>
      </trkpt>
      <trkpt lat="48.58276" lon="-2.56568">
        <ele>33.8</ele>
        <time>2013-09-27T17:11:13Z</time>
      </trkpt>
      <trkpt lat="48.58271" lon="-2.56577">
        <ele>33.5</ele>
        <time>2013-09-27T17:11:19Z</time>
      </trkpt>
      <trkpt lat="48.58266" lon="-2.56587">
        <ele>32.8</ele>
        <time>2013-09-27T17:11:25Z</time>
      </trkpt>
      <trkpt lat="48.5826" lon="-2.56597">
        <ele>32.9</ele>
        <time>2013-09-27T17:11:31Z</time>
      </trkpt>
      <trkpt lat="48.58256" lon="-2.56608">
        <ele>31.8</ele>
        <time>2013-09-27T17:11:54Z</time>
      </trkpt>
      <trkpt lat="48.58255" lon="-2.56609">
        <ele>31.8</ele>
        <time>2013-09-27T17:11:55Z</time>
      </trkpt>
      <trkpt lat="48.58251" lon="-2.56632">
        <ele>31.5</ele>
        <time>2013-09-27T17:12:07Z</time>
      </trkpt>
      <trkpt lat="48.5825" lon="-2.56644">
        <ele>31.1</ele>
        <time>2013-09-27T17:12:13Z</time>
      </trkpt>
      <trkpt lat="48.5825" lon="-2.56657">
        <ele>30.7</ele>
        <time>2013-09-27T17:12:19Z</time>
      </trkpt>
      <trkpt lat="48.58251" lon="-2.5667">
        <ele>30.1</ele>
        <time>2013-09-27T17:12:25Z</time>
      </trkpt>
      <trkpt lat="48.58251" lon="-2.56683">
        <ele>30.3</ele>
        <time>2013-09-27T17:12:31Z</time>
      </trkpt>
      <trkpt lat="48.5825" lon="-2.56695">
        <ele>30.5</ele>
        <time>2013-09-27T17:12:46Z</time>
      </trkpt>
      <trkpt lat="48.58247" lon="-2.56708">
        <ele>30.6</ele>
        <time>2013-09-27T17:12:53Z</time>
      </trkpt>
      <trkpt lat="48.58249" lon="-2.5672">
        <ele>31</ele>
        <time>2013-09-27T17:13:04Z</time>
      </trkpt>
      <trkpt lat="48.58249" lon="-2.56721">
        <ele>32.1</ele>
        <time>2013-09-27T17:13:05Z</time>
      </trkpt>
      <trkpt lat="48.58247" lon="-2.56745">
        <ele>33.3</ele>
        <time>2013-09-27T17:13:19Z</time>
      </trkpt>
      <trkpt lat="48.58245" lon="-2.56758">
        <ele>34.1</ele>
        <time>2013-09-27T17:13:26Z</time>
      </trkpt>
      <trkpt lat="48.58243" lon="-2.5677">
        <ele>34.9</ele>
        <time>2013-09-27T17:13:33Z</time>
      </trkpt>
      <trkpt lat="48.58243" lon="-2.56782">
        <ele>35.7</ele>
        <time>2013-09-27T17:13:41Z</time>
      </trkpt>
      <trkpt lat="48.58246" lon="-2.56794">
        <ele>36.4</ele>
        <time>2013-09-27T17:13:48Z</time>
      </trkpt>
      <trkpt lat="48.5825" lon="-2.56805">
        <ele>37.2</ele>
        <time>2013-09-27T17:13:55Z</time>
      </trkpt>
      <trkpt lat="48.58256" lon="-2.56815">
        <ele>38.2</ele>
        <time>2013-09-27T17:14:02Z</time>
      </trkpt>
      <trkpt lat="48.58263" lon="-2.56823">
        <ele>37.7</ele>
        <time>2013-09-27T17:14:08Z</time>
      </trkpt>
      <trkpt lat="48.58264" lon="-2.56824">
        <ele>37.3</ele>
        <time>2013-09-27T17:14:09Z</time>
      </trkpt>
      <trkpt lat="48.58278" lon="-2.56835">
        <ele>37.5</ele>
        <time>2013-09-27T17:14:20Z</time>
      </trkpt>
      <trkpt lat="48.58285" lon="-2.5684">
        <ele>37.6</ele>
        <time>2013-09-27T17:14:26Z</time>
      </trkpt>
      <trkpt lat="48.58292" lon="-2.56846">
        <ele>38.2</ele>
        <time>2013-09-27T17:14:33Z</time>
      </trkpt>
      <trkpt lat="48.583" lon="-2.56853">
        <ele>39.3</ele>
        <time>2013-09-27T17:14:41Z</time>
      </trkpt>
      <trkpt lat="48.58307" lon="-2.56861">
        <ele>39.6</ele>
        <time>2013-09-27T17:14:49Z</time>
      </trkpt>
      <trkpt lat="48.58314" lon="-2.56868">
        <ele>41.8</ele>
        <time>2013-09-27T17:15:02Z</time>
      </trkpt>
      <trkpt lat="48.58321" lon="-2.56876">
        <ele>41.6</ele>
        <time>2013-09-27T17:15:11Z</time>
      </trkpt>
      <trkpt lat="48.58322" lon="-2.56878">
        <ele>41.7</ele>
        <time>2013-09-27T17:15:12Z</time>
      </trkpt>
      <trkpt lat="48.58328" lon="-2.56898">
        <ele>42.6</ele>
        <time>2013-09-27T17:15:23Z</time>
      </trkpt>
      <trkpt lat="48.58332" lon="-2.56909">
        <ele>42.5</ele>
        <time>2013-09-27T17:15:31Z</time>
      </trkpt>
      <trkpt lat="48.58337" lon="-2.56919">
        <ele>41.6</ele>
        <time>2013-09-27T17:15:41Z</time>
      </trkpt>
      <trkpt lat="48.58338" lon="-2.56933">
        <ele>40.5</ele>
        <time>2013-09-27T17:16:16Z</time>
      </trkpt>
      <trkpt lat="48.58338" lon="-2.56933">
        <ele>40.7</ele>
        <time>2013-09-27T17:16:17Z</time>
      </trkpt>
      <trkpt lat="48.58351" lon="-2.56921">
        <ele>39.5</ele>
        <time>2013-09-27T17:16:58Z</time>
      </trkpt>
      <trkpt lat="48.58343" lon="-2.56925">
        <ele>40.2</ele>
        <time>2013-09-27T17:17:39Z</time>
      </trkpt>
      <trkpt lat="48.58342" lon="-2.56925">
        <ele>40.5</ele>
        <time>2013-09-27T17:17:40Z</time>
      </trkpt>
      <trkpt lat="48.58327" lon="-2.56925">
        <ele>42.1</ele>
        <time>2013-09-27T17:17:53Z</time>
      </trkpt>
      <trkpt lat="48.58319" lon="-2.56925">
        <ele>42.3</ele>
        <time>2013-09-27T17:18:01Z</time>
      </trkpt>
      <trkpt lat="48.58311" lon="-2.56928">
        <ele>43.2</ele>
        <time>2013-09-27T17:18:08Z</time>
      </trkpt>
      <trkpt lat="48.58303" lon="-2.56929">
        <ele>44.2</ele>
        <time>2013-09-27T17:18:14Z</time>
      </trkpt>
      <trkpt lat="48.58295" lon="-2.5693">
        <ele>44.4</ele>
        <time>2013-09-27T17:18:20Z</time>
      </trkpt>
      <trkpt lat="48.58286" lon="-2.56931">
        <ele>45.1</ele>
        <time>2013-09-27T17:18:26Z</time>
      </trkpt>
      <trkpt lat="48.58278" lon="-2.5693">
        <ele>44.4</ele>
        <time>2013-09-27T17:18:32Z</time>
      </trkpt>
      <trkpt lat="48.58269" lon="-2.56931">
        <ele>45.2</ele>
        <time>2013-09-27T17:18:38Z</time>
      </trkpt>
      <trkpt lat="48.58261" lon="-2.56934">
        <ele>45.5</ele>
        <time>2013-09-27T17:18:44Z</time>
      </trkpt>
      <trkpt lat="48.58259" lon="-2.56934">
        <ele>45.3</ele>
        <time>2013-09-27T17:18:45Z</time>
      </trkpt>
      <trkpt lat="48.58244" lon="-2.56929">
        <ele>45.5</ele>
        <time>2013-09-27T17:18:57Z</time>
      </trkpt>
      <trkpt lat="48.58236" lon="-2.56931">
        <ele>44.7</ele>
        <time>2013-09-27T17:19:05Z</time>
      </trkpt>
      <trkpt lat="48.58227" lon="-2.56931">
        <ele>43.4</ele>
        <time>2013-09-27T17:19:11Z</time>
      </trkpt>
      <trkpt lat="48.58219" lon="-2.56929">
        <ele>42.5</ele>
        <time>2013-09-27T17:19:17Z</time>
      </trkpt>
      <trkpt lat="48.58212" lon="-2.56933">
        <ele>42.5</ele>
        <time>2013-09-27T17:19:23Z</time>
      </trkpt>
      <trkpt lat="48.58204" lon="-2.56939">
        <ele>42.2</ele>
        <time>2013-09-27T17:19:31Z</time>
      </trkpt>
      <trkpt lat="48.58197" lon="-2.56947">
        <ele>43.1</ele>
        <time>2013-09-27T17:19:47Z</time>
      </trkpt>
      <trkpt lat="48.58197" lon="-2.56948">
        <ele>43.1</ele>
        <time>2013-09-27T17:19:48Z</time>
      </trkpt>
      <trkpt lat="48.58181" lon="-2.56951">
        <ele>43</ele>
        <time>2013-09-27T17:20:34Z</time>
      </trkpt>
      <trkpt lat="48.58173" lon="-2.56955">
        <ele>42.6</ele>
        <time>2013-09-27T17:20:39Z</time>
      </trkpt>
      <trkpt lat="48.58165" lon="-2.56958">
        <ele>41.3</ele>
        <time>2013-09-27T17:20:45Z</time>
      </trkpt>
      <trkpt lat="48.58156" lon="-2.5696">
        <ele>40.2</ele>
        <time>2013-09-27T17:20:52Z</time>
      </trkpt>
      <trkpt lat="48.58155" lon="-2.56961">
        <ele>39.6</ele>
        <time>2013-09-27T17:20:53Z</time>
      </trkpt>
      <trkpt lat="48.5814" lon="-2.56957">
        <ele>38.1</ele>
        <time>2013-09-27T17:21:05Z</time>
      </trkpt>
      <trkpt lat="48.58132" lon="-2.5696">
        <ele>36.1</ele>
        <time>2013-09-27T17:21:13Z</time>
      </trkpt>
      <trkpt lat="48.58123" lon="-2.5696">
        <ele>34.3</ele>
        <time>2013-09-27T17:21:19Z</time>
      </trkpt>
      <trkpt lat="48.58115" lon="-2.56959">
        <ele>34.3</ele>
        <time>2013-09-27T17:21:25Z</time>
      </trkpt>
      <trkpt lat="48.58107" lon="-2.56958">
        <ele>33.1</ele>
        <time>2013-09-27T17:21:31Z</time>
      </trkpt>
      <trkpt lat="48.58099" lon="-2.5696">
        <ele>31.8</ele>
        <time>2013-09-27T17:21:37Z</time>
      </trkpt>
      <trkpt lat="48.5809" lon="-2.56962">
        <ele>31.3</ele>
        <time>2013-09-27T17:21:43Z</time>
      </trkpt>
      <trkpt lat="48.58082" lon="-2.56961">
        <ele>29.9</ele>
        <time>2013-09-27T17:21:49Z</time>
      </trkpt>
      <trkpt lat="48.58074" lon="-2.56958">
        <ele>30.5</ele>
        <time>2013-09-27T17:21:55Z</time>
      </trkpt>
      <trkpt lat="48.58073" lon="-2.56957">
        <ele>30.7</ele>
        <time>2013-09-27T17:21:56Z</time>
      </trkpt>
      <trkpt lat="48.58061" lon="-2.56944">
        <ele>30.6</ele>
        <time>2013-09-27T17:22:07Z</time>
      </trkpt>
      <trkpt lat="48.58057" lon="-2.56933">
        <ele>29.9</ele>
        <time>2013-09-27T17:22:13Z</time>
      </trkpt>
      <trkpt lat="48.58054" lon="-2.56921">
        <ele>30.1</ele>
        <time>2013-09-27T17:22:19Z</time>
      </trkpt>
      <trkpt lat="48.58053" lon="-2.56909">
        <ele>29.8</ele>
        <time>2013-09-27T17:22:25Z</time>
      </trkpt>
      <trkpt lat="48.58048" lon="-2.56899">
        <ele>30.8</ele>
        <time>2013-09-27T17:22:31Z</time>
      </trkpt>
      <trkpt lat="48.58041" lon="-2.56892">
        <ele>30.9</ele>
        <time>2013-09-27T17:22:37Z</time>
      </trkpt>
      <trkpt lat="48.58034" lon="-2.56884">
        <ele>30.4</ele>
        <time>2013-09-27T17:22:44Z</time>
      </trkpt>
      <trkpt lat="48.58028" lon="-2.56874">
        <ele>32.8</ele>
        <time>2013-09-27T17:22:53Z</time>
      </trkpt>
      <trkpt lat="48.5802" lon="-2.56869">
        <ele>33.4</ele>
        <time>2013-09-27T17:23:00Z</time>
      </trkpt>
      <trkpt lat="48.58019" lon="-2.56869">
        <ele>33.5</ele>
        <time>2013-09-27T17:23:01Z</time>
      </trkpt>
      <trkpt lat="48.58004" lon="-2.56867">
        <ele>34.3</ele>
        <time>2013-09-27T17:23:13Z</time>
      </trkpt>
      <trkpt lat="48.57996" lon="-2.56868">
        <ele>32.4</ele>
        <time>2013-09-27T17:23:19Z</time>
      </trkpt>
      <trkpt lat="48.57988" lon="-2.56871">
        <ele>35.4</ele>
        <time>2013-09-27T17:23:25Z</time>
      </trkpt>
      <trkpt lat="48.57981" lon="-2.56874">
        <ele>33.7</ele>
        <time>2013-09-27T17:23:31Z</time>
      </trkpt>
      <trkpt lat="48.57973" lon="-2.56878">
        <ele>36.6</ele>
        <time>2013-09-27T17:23:37Z</time>
      </trkpt>
      <trkpt lat="48.57966" lon="-2.56885">
        <ele>37.1</ele>
        <time>2013-09-27T17:23:43Z</time>
      </trkpt>
      <trkpt lat="48.57959" lon="-2.56893">
        <ele>35.3</ele>
        <time>2013-09-27T17:23:50Z</time>
      </trkpt>
      <trkpt lat="48.57953" lon="-2.56901">
        <ele>35.1</ele>
        <time>2013-09-27T17:23:56Z</time>
      </trkpt>
      <trkpt lat="48.57948" lon="-2.5691">
        <ele>36</ele>
        <time>2013-09-27T17:24:02Z</time>
      </trkpt>
      <trkpt lat="48.57947" lon="-2.56912">
        <ele>35.6</ele>
        <time>2013-09-27T17:24:03Z</time>
      </trkpt>
      <trkpt lat="48.57942" lon="-2.56933">
        <ele>35</ele>
        <time>2013-09-27T17:24:16Z</time>
      </trkpt>
      <trkpt lat="48.57935" lon="-2.56939">
        <ele>32.9</ele>
        <time>2013-09-27T17:24:25Z</time>
      </trkpt>
      <trkpt lat="48.57926" lon="-2.56937">
        <ele>31.1</ele>
        <time>2013-09-27T17:24:32Z</time>
      </trkpt>
      <trkpt lat="48.57918" lon="-2.56931">
        <ele>31.2</ele>
        <time>2013-09-27T17:24:39Z</time>
      </trkpt>
      <trkpt lat="48.5791" lon="-2.56928">
        <ele>29.9</ele>
        <time>2013-09-27T17:24:46Z</time>
      </trkpt>
      <trkpt lat="48.57903" lon="-2.56933">
        <ele>31.2</ele>
        <time>2013-09-27T17:24:52Z</time>
      </trkpt>
      <trkpt lat="48.57898" lon="-2.56944">
        <ele>28.7</ele>
        <time>2013-09-27T17:24:59Z</time>
      </trkpt>
      <trkpt lat="48.57892" lon="-2.56934">
        <ele>26.6</ele>
        <time>2013-09-27T17:25:20Z</time>
      </trkpt>
      <trkpt lat="48.57892" lon="-2.56933">
        <ele>26.5</ele>
        <time>2013-09-27T17:25:21Z</time>
      </trkpt>
      <trkpt lat="48.57891" lon="-2.56909">
        <ele>24.5</ele>
        <time>2013-09-27T17:26:23Z</time>
      </trkpt>
      <trkpt lat="48.57892" lon="-2.56907">
        <ele>24.5</ele>
        <time>2013-09-27T17:26:24Z</time>
      </trkpt>
      <trkpt lat="48.57889" lon="-2.56885">
        <ele>21.6</ele>
        <time>2013-09-27T17:26:36Z</time>
      </trkpt>
      <trkpt lat="48.57887" lon="-2.56873">
        <ele>21.8</ele>
        <time>2013-09-27T17:26:42Z</time>
      </trkpt>
      <trkpt lat="48.57887" lon="-2.56861">
        <ele>21.1</ele>
        <time>2013-09-27T17:26:48Z</time>
      </trkpt>
      <trkpt lat="48.57886" lon="-2.56849">
        <ele>21.2</ele>
        <time>2013-09-27T17:26:54Z</time>
      </trkpt>
      <trkpt lat="48.57884" lon="-2.56838">
        <ele>21.1</ele>
        <time>2013-09-27T17:27:00Z</time>
      </trkpt>
      <trkpt lat="48.5788" lon="-2.56826">
        <ele>20.4</ele>
        <time>2013-09-27T17:27:06Z</time>
      </trkpt>
      <trkpt lat="48.57876" lon="-2.56816">
        <ele>20.7</ele>
        <time>2013-09-27T17:27:12Z</time>
      </trkpt>
      <trkpt lat="48.57871" lon="-2.56807">
        <ele>20.7</ele>
        <time>2013-09-27T17:27:18Z</time>
      </trkpt>
      <trkpt lat="48.57865" lon="-2.56797">
        <ele>21.1</ele>
        <time>2013-09-27T17:27:24Z</time>
      </trkpt>
      <trkpt lat="48.57864" lon="-2.56795">
        <ele>21.3</ele>
        <time>2013-09-27T17:27:25Z</time>
      </trkpt>
      <trkpt lat="48.57855" lon="-2.56778">
        <ele>20.7</ele>
        <time>2013-09-27T17:27:34Z</time>
      </trkpt>
      <trkpt lat="48.5785" lon="-2.56767">
        <ele>20.9</ele>
        <time>2013-09-27T17:27:40Z</time>
      </trkpt>
      <trkpt lat="48.57845" lon="-2.56756">
        <ele>20.6</ele>
        <time>2013-09-27T17:27:47Z</time>
      </trkpt>
      <trkpt lat="48.57841" lon="-2.56746">
        <ele>21.3</ele>
        <time>2013-09-27T17:27:53Z</time>
      </trkpt>
      <trkpt lat="48.57836" lon="-2.56736">
        <ele>20.5</ele>
        <time>2013-09-27T17:27:58Z</time>
      </trkpt>
      <trkpt lat="48.57831" lon="-2.56726">
        <ele>21.3</ele>
        <time>2013-09-27T17:28:04Z</time>
      </trkpt>
      <trkpt lat="48.57826" lon="-2.56716">
        <ele>21.5</ele>
        <time>2013-09-27T17:28:10Z</time>
      </trkpt>
      <trkpt lat="48.57822" lon="-2.56706">
        <ele>19.9</ele>
        <time>2013-09-27T17:28:15Z</time>
      </trkpt>
      <trkpt lat="48.57819" lon="-2.56695">
        <ele>20.4</ele>
        <time>2013-09-27T17:28:20Z</time>
      </trkpt>
      <trkpt lat="48.57815" lon="-2.56684">
        <ele>20.5</ele>
        <time>2013-09-27T17:28:25Z</time>
      </trkpt>
      <trkpt lat="48.57815" lon="-2.56682">
        <ele>21.1</ele>
        <time>2013-09-27T17:28:26Z</time>
      </trkpt>
      <trkpt lat="48.57809" lon="-2.56659">
        <ele>21.1</ele>
        <time>2013-09-27T17:28:37Z</time>
      </trkpt>
      <trkpt lat="48.57808" lon="-2.56648">
        <ele>20.8</ele>
        <time>2013-09-27T17:28:42Z</time>
      </trkpt>
      <trkpt lat="48.57808" lon="-2.56636">
        <ele>20.8</ele>
        <time>2013-09-27T17:28:47Z</time>
      </trkpt>
      <trkpt lat="48.57809" lon="-2.56624">
        <ele>20.9</ele>
        <time>2013-09-27T17:28:52Z</time>
      </trkpt>
      <trkpt lat="48.57811" lon="-2.56612">
        <ele>21.4</ele>
        <time>2013-09-27T17:28:57Z</time>
      </trkpt>
      <trkpt lat="48.57814" lon="-2.56601">
        <ele>21</ele>
        <time>2013-09-27T17:29:02Z</time>
      </trkpt>
      <trkpt lat="48.57817" lon="-2.56588">
        <ele>21.4</ele>
        <time>2013-09-27T17:29:08Z</time>
      </trkpt>
      <trkpt lat="48.57821" lon="-2.56577">
        <ele>20.8</ele>
        <time>2013-09-27T17:29:14Z</time>
      </trkpt>
      <trkpt lat="48.57824" lon="-2.56566">
        <ele>21.8</ele>
        <time>2013-09-27T17:29:20Z</time>
      </trkpt>
      <trkpt lat="48.57827" lon="-2.56554">
        <ele>20.5</ele>
        <time>2013-09-27T17:29:26Z</time>
      </trkpt>
      <trkpt lat="48.57828" lon="-2.56552">
        <ele>20.7</ele>
        <time>2013-09-27T17:29:27Z</time>
      </trkpt>
      <trkpt lat="48.57835" lon="-2.56532">
        <ele>20.9</ele>
        <time>2013-09-27T17:29:37Z</time>
      </trkpt>
      <trkpt lat="48.57838" lon="-2.56521">
        <ele>21.1</ele>
        <time>2013-09-27T17:29:43Z</time>
      </trkpt>
      <trkpt lat="48.57842" lon="-2.56511">
        <ele>20.9</ele>
        <time>2013-09-27T17:29:49Z</time>
      </trkpt>
      <trkpt lat="48.57846" lon="-2.56499">
        <ele>21.4</ele>
        <time>2013-09-27T17:29:55Z</time>
      </trkpt>
      <trkpt lat="48.57848" lon="-2.56487">
        <ele>21.9</ele>
        <time>2013-09-27T17:30:01Z</time>
      </trkpt>
      <trkpt lat="48.57851" lon="-2.56475">
        <ele>21.7</ele>
        <time>2013-09-27T17:30:07Z</time>
      </trkpt>
      <trkpt lat="48.57854" lon="-2.56463">
        <ele>21.7</ele>
        <time>2013-09-27T17:30:13Z</time>
      </trkpt>
      <trkpt lat="48.57858" lon="-2.56451">
        <ele>21.5</ele>
        <time>2013-09-27T17:30:19Z</time>
      </trkpt>
      <trkpt lat="48.57861" lon="-2.56439">
        <ele>21.2</ele>
        <time>2013-09-27T17:30:25Z</time>
      </trkpt>
      <trkpt lat="48.57864" lon="-2.56426">
        <ele>21.2</ele>
        <time>2013-09-27T17:30:31Z</time>
      </trkpt>
      <trkpt lat="48.57864" lon="-2.56424">
        <ele>21.1</ele>
        <time>2013-09-27T17:30:32Z</time>
      </trkpt>
      <trkpt lat="48.5787" lon="-2.56401">
        <ele>22.2</ele>
        <time>2013-09-27T17:30:43Z</time>
      </trkpt>
      <trkpt lat="48.57873" lon="-2.56389">
        <ele>21.3</ele>
        <time>2013-09-27T17:30:49Z</time>
      </trkpt>
      <trkpt lat="48.57876" lon="-2.56376">
        <ele>21.4</ele>
        <time>2013-09-27T17:30:55Z</time>
      </trkpt>
      <trkpt lat="48.5788" lon="-2.56364">
        <ele>20.5</ele>
        <time>2013-09-27T17:31:01Z</time>
      </trkpt>
      <trkpt lat="48.57885" lon="-2.56353">
        <ele>21.2</ele>
        <time>2013-09-27T17:31:07Z</time>
      </trkpt>
      <trkpt lat="48.57888" lon="-2.56341">
        <ele>21.6</ele>
        <time>2013-09-27T17:31:13Z</time>
      </trkpt>
      <trkpt lat="48.57892" lon="-2.5633">
        <ele>21.2</ele>
        <time>2013-09-27T17:31:19Z</time>
      </trkpt>
      <trkpt lat="48.57894" lon="-2.56317">
        <ele>20.8</ele>
        <time>2013-09-27T17:31:26Z</time>
      </trkpt>
      <trkpt lat="48.57896" lon="-2.56305">
        <ele>21.5</ele>
        <time>2013-09-27T17:31:32Z</time>
      </trkpt>
      <trkpt lat="48.57897" lon="-2.56303">
        <ele>21.6</ele>
        <time>2013-09-27T17:31:33Z</time>
      </trkpt>
      <trkpt lat="48.57885" lon="-2.56294">
        <ele>21.8</ele>
        <time>2013-09-27T17:31:46Z</time>
      </trkpt>
      <trkpt lat="48.57877" lon="-2.56297">
        <ele>21.3</ele>
        <time>2013-09-27T17:31:51Z</time>
      </trkpt>
      <trkpt lat="48.57869" lon="-2.563">
        <ele>22.5</ele>
        <time>2013-09-27T17:31:57Z</time>
      </trkpt>
      <trkpt lat="48.57861" lon="-2.56305">
        <ele>21.9</ele>
        <time>2013-09-27T17:32:03Z</time>
      </trkpt>
      <trkpt lat="48.57853" lon="-2.56312">
        <ele>21.3</ele>
        <time>2013-09-27T17:32:09Z</time>
      </trkpt>
      <trkpt lat="48.57847" lon="-2.56319">
        <ele>21.2</ele>
        <time>2013-09-27T17:32:14Z</time>
      </trkpt>
      <trkpt lat="48.5784" lon="-2.56324">
        <ele>21.2</ele>
        <time>2013-09-27T17:32:19Z</time>
      </trkpt>
      <trkpt lat="48.57834" lon="-2.5633">
        <ele>20.4</ele>
        <time>2013-09-27T17:32:24Z</time>
      </trkpt>
      <trkpt lat="48.57826" lon="-2.56337">
        <ele>20.6</ele>
        <time>2013-09-27T17:32:30Z</time>
      </trkpt>
      <trkpt lat="48.57819" lon="-2.56344">
        <ele>22.3</ele>
        <time>2013-09-27T17:32:37Z</time>
      </trkpt>
      <trkpt lat="48.57818" lon="-2.56345">
        <ele>21.8</ele>
        <time>2013-09-27T17:32:38Z</time>
      </trkpt>
      <trkpt lat="48.57815" lon="-2.56334">
        <ele>21.7</ele>
        <time>2013-09-27T17:33:26Z</time>
      </trkpt>
      <trkpt lat="48.57812" lon="-2.56347">
        <ele>21.2</ele>
        <time>2013-09-27T17:33:30Z</time>
      </trkpt>
      <trkpt lat="48.57809" lon="-2.56358">
        <ele>21.5</ele>
        <time>2013-09-27T17:33:34Z</time>
      </trkpt>
      <trkpt lat="48.57805" lon="-2.56367">
        <ele>20.9</ele>
        <time>2013-09-27T17:33:39Z</time>
      </trkpt>
      <trkpt lat="48.57804" lon="-2.56369">
        <ele>20.7</ele>
        <time>2013-09-27T17:33:40Z</time>
      </trkpt>
      <trkpt lat="48.57793" lon="-2.56384">
        <ele>22.1</ele>
        <time>2013-09-27T17:33:49Z</time>
      </trkpt>
      <trkpt lat="48.57787" lon="-2.56393">
        <ele>22</ele>
        <time>2013-09-27T17:33:55Z</time>
      </trkpt>
      <trkpt lat="48.57783" lon="-2.56403">
        <ele>21.5</ele>
        <time>2013-09-27T17:34:01Z</time>
      </trkpt>
      <trkpt lat="48.57777" lon="-2.56413">
        <ele>21.7</ele>
        <time>2013-09-27T17:34:08Z</time>
      </trkpt>
      <trkpt lat="48.57773" lon="-2.56425">
        <ele>21.5</ele>
        <time>2013-09-27T17:34:15Z</time>
      </trkpt>
      <trkpt lat="48.57766" lon="-2.56432">
        <ele>23.1</ele>
        <time>2013-09-27T17:34:21Z</time>
      </trkpt>
      <trkpt lat="48.57758" lon="-2.56433">
        <ele>19.6</ele>
        <time>2013-09-27T17:34:25Z</time>
      </trkpt>
      <trkpt lat="48.5775" lon="-2.56431">
        <ele>21.8</ele>
        <time>2013-09-27T17:34:29Z</time>
      </trkpt>
      <trkpt lat="48.57742" lon="-2.56427">
        <ele>22.6</ele>
        <time>2013-09-27T17:34:34Z</time>
      </trkpt>
      <trkpt lat="48.57735" lon="-2.56423">
        <ele>21.8</ele>
        <time>2013-09-27T17:34:39Z</time>
      </trkpt>
      <trkpt lat="48.57727" lon="-2.56419">
        <ele>21.3</ele>
        <time>2013-09-27T17:34:44Z</time>
      </trkpt>
      <trkpt lat="48.57726" lon="-2.56418">
        <ele>21.3</ele>
        <time>2013-09-27T17:34:45Z</time>
      </trkpt>
      <trkpt lat="48.57715" lon="-2.56411">
        <ele>21.2</ele>
        <time>2013-09-27T17:34:52Z</time>
      </trkpt>
      <trkpt lat="48.57707" lon="-2.56406">
        <ele>21.4</ele>
        <time>2013-09-27T17:34:58Z</time>
      </trkpt>
      <trkpt lat="48.57699" lon="-2.5641">
        <ele>21.4</ele>
        <time>2013-09-27T17:35:19Z</time>
      </trkpt>
      <trkpt lat="48.57694" lon="-2.564">
        <ele>21.8</ele>
        <time>2013-09-27T17:35:43Z</time>
      </trkpt>
      <trkpt lat="48.57686" lon="-2.564">
        <ele>21.3</ele>
        <time>2013-09-27T17:35:50Z</time>
      </trkpt>
      <trkpt lat="48.57684" lon="-2.56401">
        <ele>21.5</ele>
        <time>2013-09-27T17:35:51Z</time>
      </trkpt>
      <trkpt lat="48.57669" lon="-2.56394">
        <ele>22.1</ele>
        <time>2013-09-27T17:36:02Z</time>
      </trkpt>
      <trkpt lat="48.57662" lon="-2.5639">
        <ele>21.2</ele>
        <time>2013-09-27T17:36:07Z</time>
      </trkpt>
      <trkpt lat="48.57655" lon="-2.56386">
        <ele>21.2</ele>
        <time>2013-09-27T17:36:12Z</time>
      </trkpt>
      <trkpt lat="48.57647" lon="-2.56382">
        <ele>21.5</ele>
        <time>2013-09-27T17:36:18Z</time>
      </trkpt>
      <trkpt lat="48.57638" lon="-2.56377">
        <ele>21.6</ele>
        <time>2013-09-27T17:36:24Z</time>
      </trkpt>
      <trkpt lat="48.5763" lon="-2.56373">
        <ele>21.2</ele>
        <time>2013-09-27T17:36:30Z</time>
      </trkpt>
      <trkpt lat="48.57621" lon="-2.56372">
        <ele>21.7</ele>
        <time>2013-09-27T17:36:36Z</time>
      </trkpt>
      <trkpt lat="48.57613" lon="-2.56376">
        <ele>21.8</ele>
        <time>2013-09-27T17:36:42Z</time>
      </trkpt>
      <trkpt lat="48.57607" lon="-2.56385">
        <ele>21.1</ele>
        <time>2013-09-27T17:36:48Z</time>
      </trkpt>
      <trkpt lat="48.57603" lon="-2.56397">
        <ele>21.5</ele>
        <time>2013-09-27T17:36:54Z</time>
      </trkpt>
      <trkpt lat="48.57603" lon="-2.56399">
        <ele>21.4</ele>
        <time>2013-09-27T17:36:55Z</time>
      </trkpt>
      <trkpt lat="48.57598" lon="-2.56422">
        <ele>21.6</ele>
        <time>2013-09-27T17:37:06Z</time>
      </trkpt>
      <trkpt lat="48.57595" lon="-2.56434">
        <ele>21.5</ele>
        <time>2013-09-27T17:37:12Z</time>
      </trkpt>
      <trkpt lat="48.57592" lon="-2.56447">
        <ele>21.3</ele>
        <time>2013-09-27T17:37:18Z</time>
      </trkpt>
      <trkpt lat="48.57589" lon="-2.56459">
        <ele>20.9</ele>
        <time>2013-09-27T17:37:24Z</time>
      </trkpt>
      <trkpt lat="48.57586" lon="-2.56471">
        <ele>22.4</ele>
        <time>2013-09-27T17:37:30Z</time>
      </trkpt>
      <trkpt lat="48.57584" lon="-2.56483">
        <ele>22.5</ele>
        <time>2013-09-27T17:37:36Z</time>
      </trkpt>
      <trkpt lat="48.57581" lon="-2.56496">
        <ele>21.8</ele>
        <time>2013-09-27T17:37:42Z</time>
      </trkpt>
      <trkpt lat="48.57578" lon="-2.56508">
        <ele>22.3</ele>
        <time>2013-09-27T17:37:48Z</time>
      </trkpt>
      <trkpt lat="48.57576" lon="-2.5652">
        <ele>22.6</ele>
        <time>2013-09-27T17:37:54Z</time>
      </trkpt>
      <trkpt lat="48.57573" lon="-2.56532">
        <ele>22</ele>
        <time>2013-09-27T17:38:00Z</time>
      </trkpt>
      <trkpt lat="48.57572" lon="-2.56534">
        <ele>21.8</ele>
        <time>2013-09-27T17:38:01Z</time>
      </trkpt>
      <trkpt lat="48.5757" lon="-2.56556">
        <ele>22.4</ele>
        <time>2013-09-27T17:38:12Z</time>
      </trkpt>
      <trkpt lat="48.5757" lon="-2.56562">
        <ele>22.3</ele>
        <time>2013-09-27T17:38:18Z</time>
      </trkpt>
      <trkpt lat="48.5757" lon="-2.56562">
        <ele>22.3</ele>
        <time>2013-09-27T17:38:18Z</time>
      </trkpt>
    </trkseg>
  </trk>
</gpx>